Wetterdaten: Samstag, 28.07.2018
Datum Zeit Temp. Aussen Temp. o. S. +5cm Feuchte Auss Luftdruck Regen Sonnenschein Regendauer Solar Windben Empfang
28.07.2018 00:00 24,8 C 22,8 C 22,2 C 59 % 1005,3 hPa 0,0 l/m 0 min 0 min 0 W/m 0,0 km/h (0 Bft) 98,00 %
28.07.2018 00:02 24,8 C 22,8 C 22,2 C 59 % 1005,3 hPa 0,0 l/m 0 min 0 min 0 W/m 0,0 km/h (0 Bft) 100,00 %
28.07.2018 00:04 24,8 C 22,8 C 22,2 C 60 % 1005,4 hPa 0,0 l/m 0 min 0 min 0 W/m 0,0 km/h (0 Bft) 97,92 %
28.07.2018 00:08 24,7 C 22,8 C 21,7 C 60 % 1005,2 hPa 0,0 l/m 0 min 0 min 0 W/m 2,3 km/h (1 Bft) 97,89 %
28.07.2018 00:10 24,6 C 22,8 C 21,7 C 60 % 1005,2 hPa 0,0 l/m 0 min 0 min 0 W/m 0,0 km/h (0 Bft) 97,83 %
28.07.2018 00:12 24,6 C 22,2 C 21,7 C 60 % 1005,3 hPa 0,0 l/m 0 min 0 min 0 W/m 2,3 km/h (1 Bft) 100,00 %
28.07.2018 00:14 24,5 C 22,2 C 21,7 C 61 % 1005,2 hPa 0,0 l/m 0 min 0 min 0 W/m 0,0 km/h (0 Bft) 100,00 %
28.07.2018 00:16 24,4 C 22,8 C 21,7 C 61 % 1005,2 hPa 0,0 l/m 0 min 0 min 0 W/m 2,3 km/h (1 Bft) 100,00 %
28.07.2018 00:18 24,4 C 22,8 C 21,7 C 61 % 1005,2 hPa 0,0 l/m 0 min 0 min 0 W/m 2,3 km/h (1 Bft) 100,00 %
28.07.2018 00:20 24,3 C 22,8 C 21,7 C 61 % 1005,3 hPa 0,0 l/m 0 min 0 min 0 W/m 2,3 km/h (1 Bft) 97,92 %
28.07.2018 00:22 24,3 C 22,8 C 21,7 C 61 % 1005,2 hPa 0,0 l/m 0 min 0 min 0 W/m 2,3 km/h (1 Bft) 97,92 %
28.07.2018 00:24 24,3 C 22,8 C 21,7 C 61 % 1005,2 hPa 0,0 l/m 0 min 0 min 0 W/m 2,3 km/h (1 Bft) 97,87 %
28.07.2018 00:26 24,2 C 23,3 C 22,2 C 61 % 1005,2 hPa 0,0 l/m 0 min 0 min 0 W/m 4,5 km/h (1 Bft) 97,92 %
28.07.2018 00:28 24,2 C 23,3 C 22,2 C 60 % 1005,1 hPa 0,0 l/m 0 min 0 min 0 W/m 4,5 km/h (1 Bft) 97,87 %
28.07.2018 00:30 24,2 C 23,3 C 22,2 C 60 % 1005,1 hPa 0,0 l/m 0 min 0 min 0 W/m 2,3 km/h (1 Bft) 95,74 %
28.07.2018 00:32 24,1 C 23,3 C 22,2 C 61 % 1005,1 hPa 0,0 l/m 0 min 0 min 0 W/m 4,5 km/h (1 Bft) 100,00 %
28.07.2018 00:34 24,1 C 23,3 C 22,2 C 61 % 1005,1 hPa 0,0 l/m 0 min 0 min 0 W/m 4,5 km/h (1 Bft) 97,87 %
28.07.2018 00:36 24,1 C 23,9 C 22,2 C 60 % 1005,2 hPa 0,0 l/m 0 min 0 min 0 W/m 6,8 km/h (2 Bft) 100,00 %
28.07.2018 00:38 24,1 C 23,9 C 22,2 C 60 % 1005,1 hPa 0,0 l/m 0 min 0 min 0 W/m 6,8 km/h (2 Bft) 100,00 %
28.07.2018 00:40 24,1 C 24,4 C 22,8 C 59 % 1005,2 hPa 0,0 l/m 0 min 0 min 0 W/m 6,8 km/h (2 Bft) 97,92 %
28.07.2018 00:42 24,1 C 25,0 C 22,8 C 59 % 1005,1 hPa 0,0 l/m 0 min 0 min 0 W/m 6,8 km/h (2 Bft) 97,87 %
28.07.2018 00:44 24,1 C 25,0 C 22,8 C 59 % 1005,1 hPa 0,0 l/m 0 min 0 min 0 W/m 4,5 km/h (1 Bft) 97,87 %
28.07.2018 00:46 24,1 C 25,0 C 22,8 C 59 % 1005,2 hPa 0,0 l/m 0 min 0 min 0 W/m 4,5 km/h (1 Bft) 97,87 %
28.07.2018 00:48 24,1 C 25,0 C 22,8 C 59 % 1005,1 hPa 0,0 l/m 0 min 0 min 0 W/m 6,8 km/h (2 Bft) 97,83 %
28.07.2018 00:50 24,2 C 25,0 C 22,8 C 58 % 1005,1 hPa 0,0 l/m 0 min 0 min 0 W/m 6,8 km/h (2 Bft) 95,74 %
28.07.2018 00:52 24,2 C 25,6 C 22,8 C 58 % 1005,0 hPa 0,0 l/m 0 min 0 min 0 W/m 6,8 km/h (2 Bft) 97,96 %
28.07.2018 00:54 24,2 C 25,6 C 22,8 C 58 % 1005,0 hPa 0,0 l/m 0 min 0 min 0 W/m 4,5 km/h (1 Bft) 97,87 %
28.07.2018 00:56 24,3 C 25,6 C 23,3 C 58 % 1005,0 hPa 0,0 l/m 0 min 0 min 0 W/m 9,0 km/h (2 Bft) 95,74 %
28.07.2018 00:58 24,4 C 25,6 C 23,3 C 58 % 1004,9 hPa 0,0 l/m 0 min 0 min 0 W/m 6,8 km/h (2 Bft) 97,87 %
28.07.2018 01:00 24,4 C 25,6 C 23,3 C 57 % 1004,9 hPa 0,0 l/m 0 min 0 min 0 W/m 9,0 km/h (2 Bft) 95,65 %
28.07.2018 01:02 24,6 C 26,1 C 23,3 C 57 % 1005,0 hPa 0,0 l/m 0 min 0 min 0 W/m 9,0 km/h (2 Bft) 93,88 %
28.07.2018 01:04 24,7 C 26,1 C 23,9 C 57 % 1004,9 hPa 0,0 l/m 0 min 0 min 0 W/m 11,3 km/h (2 Bft) 95,74 %
28.07.2018 01:06 24,8 C 26,1 C 23,9 C 57 % 1004,9 hPa 0,0 l/m 0 min 0 min 0 W/m 9,0 km/h (2 Bft) 95,74 %
28.07.2018 01:08 24,9 C 26,1 C 23,9 C 57 % 1004,9 hPa 0,0 l/m 0 min 0 min 0 W/m 13,5 km/h (3 Bft) 95,74 %
28.07.2018 01:10 25,1 C 26,1 C 23,9 C 56 % 1004,9 hPa 0,0 l/m 0 min 0 min 0 W/m 11,3 km/h (2 Bft) 93,48 %
28.07.2018 01:12 25,1 C 26,1 C 23,9 C 56 % 1004,8 hPa 0,0 l/m 0 min 0 min 0 W/m 6,8 km/h (2 Bft) 95,74 %
28.07.2018 01:14 25,2 C 26,1 C 23,9 C 56 % 1004,8 hPa 0,0 l/m 0 min 0 min 0 W/m 9,0 km/h (2 Bft) 93,62 %
28.07.2018 01:16 25,3 C 26,1 C 23,9 C 56 % 1004,9 hPa 0,0 l/m 0 min 0 min 0 W/m 4,5 km/h (1 Bft) 95,24 %
28.07.2018 01:18 25,4 C 26,1 C 23,9 C 56 % 1004,9 hPa 0,0 l/m 0 min 0 min 0 W/m 9,0 km/h (2 Bft) 95,83 %
28.07.2018 01:20 25,5 C 26,1 C 24,4 C 56 % 1004,8 hPa 0,0 l/m 0 min 0 min 0 W/m 6,8 km/h (2 Bft) 95,65 %
28.07.2018 01:22 25,6 C 26,1 C 24,4 C 56 % 1004,8 hPa 0,0 l/m 0 min 0 min 0 W/m 9,0 km/h (2 Bft) 96,30 %
28.07.2018 01:24 25,6 C 26,1 C 24,4 C 56 % 1004,8 hPa 0,0 l/m 0 min 0 min 0 W/m 6,8 km/h (2 Bft) 95,74 %
28.07.2018 01:26 25,7 C 26,1 C 24,4 C 55 % 1004,7 hPa 0,0 l/m 0 min 0 min 0 W/m 9,0 km/h (2 Bft) 95,24 %
28.07.2018 01:28 25,8 C 26,1 C 23,9 C 55 % 1004,8 hPa 0,0 l/m 0 min 0 min 0 W/m 11,3 km/h (2 Bft) 97,87 %
28.07.2018 01:30 25,8 C 25,6 C 23,9 C 55 % 1004,7 hPa 0,0 l/m 0 min 0 min 0 W/m 6,8 km/h (2 Bft) 95,74 %
28.07.2018 01:32 25,9 C 25,6 C 23,9 C 55 % 1004,9 hPa 0,0 l/m 0 min 0 min 0 W/m 9,0 km/h (2 Bft) 92,00 %
28.07.2018 01:34 25,9 C 25,6 C 23,9 C 55 % 1004,8 hPa 0,0 l/m 0 min 0 min 0 W/m 9,0 km/h (2 Bft) 97,87 %
28.07.2018 01:36 25,9 C 25,6 C 23,9 C 55 % 1004,7 hPa 0,0 l/m 0 min 0 min 0 W/m 11,3 km/h (2 Bft) 97,92 %
28.07.2018 01:38 26,0 C 25,6 C 23,9 C 55 % 1004,8 hPa 0,0 l/m 0 min 0 min 0 W/m 4,5 km/h (1 Bft) 97,87 %
28.07.2018 01:40 26,0 C 25,6 C 23,9 C 55 % 1004,8 hPa 0,0 l/m 0 min 0 min 0 W/m 4,5 km/h (1 Bft) 97,87 %
28.07.2018 01:42 26,0 C 25,6 C 23,9 C 55 % 1004,7 hPa 0,0 l/m 0 min 0 min 0 W/m 9,0 km/h (2 Bft) 100,00 %
28.07.2018 01:44 26,1 C 25,0 C 23,9 C 55 % 1004,7 hPa 0,0 l/m 0 min 0 min 0 W/m 6,8 km/h (2 Bft) 97,83 %
28.07.2018 01:46 26,1 C 25,0 C 23,9 C 55 % 1004,7 hPa 0,0 l/m 0 min 0 min 0 W/m 9,0 km/h (2 Bft) 100,00 %
28.07.2018 01:48 26,1 C 25,0 C 23,9 C 55 % 1004,7 hPa 0,0 l/m 0 min 0 min 0 W/m 11,3 km/h (2 Bft) 100,00 %
28.07.2018 01:50 26,1 C 25,0 C 23,9 C 55 % 1004,7 hPa 0,0 l/m 0 min 0 min 0 W/m 9,0 km/h (2 Bft) 100,00 %
28.07.2018 01:52 26,1 C 25,0 C 23,3 C 55 % 1004,6 hPa 0,0 l/m 0 min 0 min 0 W/m 4,5 km/h (1 Bft) 97,87 %
28.07.2018 01:54 26,1 C 25,0 C 23,3 C 55 % 1004,5 hPa 0,0 l/m 0 min 0 min 0 W/m 6,8 km/h (2 Bft) 100,00 %
28.07.2018 01:56 26,1 C 25,0 C 23,3 C 55 % 1004,5 hPa 0,0 l/m 0 min 0 min 0 W/m 6,8 km/h (2 Bft) 100,00 %
28.07.2018 01:58 26,0 C 25,0 C 23,3 C 55 % 1004,5 hPa 0,0 l/m 0 min 0 min 0 W/m 6,8 km/h (2 Bft) 100,00 %
28.07.2018 02:00 26,0 C 25,0 C 23,3 C 56 % 1004,5 hPa 0,0 l/m 0 min 0 min 0 W/m 6,8 km/h (2 Bft) 100,00 %
28.07.2018 02:02 26,0 C 25,0 C 23,3 C 55 % 1004,5 hPa 0,0 l/m 0 min 0 min 0 W/m 11,3 km/h (2 Bft) 100,00 %
28.07.2018 02:04 26,0 C 25,0 C 23,3 C 55 % 1004,5 hPa 0,0 l/m 0 min 0 min 0 W/m 6,8 km/h (2 Bft) 100,00 %
28.07.2018 02:06 25,9 C 25,0 C 23,3 C 55 % 1004,6 hPa 0,0 l/m 0 min 0 min 0 W/m 6,8 km/h (2 Bft) 100,00 %
28.07.2018 02:08 25,9 C 25,0 C 23,3 C 55 % 1004,5 hPa 0,0 l/m 0 min 0 min 0 W/m 6,8 km/h (2 Bft) 100,00 %
28.07.2018 02:10 25,9 C 25,0 C 23,3 C 55 % 1004,5 hPa 0,0 l/m 0 min 0 min 0 W/m 6,8 km/h (2 Bft) 97,87 %
28.07.2018 02:12 25,9 C 25,0 C 23,9 C 55 % 1004,6 hPa 0,0 l/m 0 min 0 min 0 W/m 11,3 km/h (2 Bft) 100,00 %
28.07.2018 02:14 25,9 C 25,0 C 23,9 C 55 % 1004,6 hPa 0,0 l/m 0 min 0 min 0 W/m 9,0 km/h (2 Bft) 100,00 %
28.07.2018 02:16 25,9 C 25,0 C 23,9 C 56 % 1004,7 hPa 0,0 l/m 0 min 0 min 0 W/m 9,0 km/h (2 Bft) 100,00 %
28.07.2018 02:18 25,9 C 25,0 C 23,9 C 56 % 1005,1 hPa 0,0 l/m 0 min 0 min 0 W/m 6,8 km/h (2 Bft) 100,00 %
28.07.2018 02:20 25,8 C 25,0 C 23,9 C 56 % 1005,1 hPa 0,0 l/m 0 min 0 min 0 W/m 9,0 km/h (2 Bft) 100,00 %
28.07.2018 02:22 25,8 C 24,4 C 23,9 C 56 % 1005,1 hPa 0,0 l/m 0 min 0 min 0 W/m 6,8 km/h (2 Bft) 100,00 %
28.07.2018 02:24 25,8 C 25,0 C 24,4 C 54 % 1004,8 hPa 0,0 l/m 0 min 0 min 0 W/m 6,8 km/h (2 Bft) 100,00 %
28.07.2018 02:26 25,7 C 25,0 C 23,9 C 54 % 1004,9 hPa 0,0 l/m 0 min 0 min 0 W/m 9,0 km/h (2 Bft) 97,87 %
28.07.2018 02:28 25,7 C 25,0 C 23,9 C 54 % 1005,1 hPa 0,0 l/m 0 min 0 min 0 W/m 6,8 km/h (2 Bft) 100,00 %
28.07.2018 02:30 25,7 C 25,0 C 24,4 C 55 % 1005,1 hPa 0,0 l/m 0 min 0 min 0 W/m 6,8 km/h (2 Bft) 95,74 %
28.07.2018 02:32 25,7 C 25,0 C 24,4 C 55 % 1005,0 hPa 0,0 l/m 0 min 0 min 0 W/m 6,8 km/h (2 Bft) 97,87 %
28.07.2018 02:34 25,7 C 25,0 C 24,4 C 54 % 1004,9 hPa 0,0 l/m 0 min 0 min 0 W/m 4,5 km/h (1 Bft) 100,00 %
28.07.2018 02:36 25,7 C 25,0 C 24,4 C 55 % 1005,0 hPa 0,0 l/m 0 min 0 min 0 W/m 4,5 km/h (1 Bft) 93,88 %
28.07.2018 02:38 25,7 C 25,0 C 23,9 C 55 % 1005,0 hPa 0,0 l/m 0 min 0 min 0 W/m 6,8 km/h (2 Bft) 95,83 %
28.07.2018 02:40 25,7 C 25,0 C 23,9 C 55 % 1005,0 hPa 0,0 l/m 0 min 0 min 0 W/m 4,5 km/h (1 Bft) 95,74 %
28.07.2018 02:42 25,7 C 25,0 C 23,9 C 54 % 1004,9 hPa 0,0 l/m 0 min 0 min 0 W/m 4,5 km/h (1 Bft) 97,87 %
28.07.2018 02:44 25,7 C 25,0 C 23,9 C 54 % 1005,0 hPa 0,0 l/m 0 min 0 min 0 W/m 9,0 km/h (2 Bft) 97,87 %
28.07.2018 02:46 25,7 C 25,0 C 23,9 C 54 % 1004,9 hPa 0,0 l/m 0 min 0 min 0 W/m 4,5 km/h (1 Bft) 97,87 %
28.07.2018 02:48 25,7 C 25,0 C 23,9 C 54 % 1004,9 hPa 0,0 l/m 0 min 0 min 0 W/m 4,5 km/h (1 Bft) 97,92 %
28.07.2018 02:50 25,6 C 25,0 C 23,3 C 54 % 1004,9 hPa 0,0 l/m 0 min 0 min 0 W/m 13,5 km/h (3 Bft) 95,74 %
28.07.2018 02:52 25,6 C 25,0 C 23,3 C 54 % 1004,9 hPa 0,0 l/m 0 min 0 min 0 W/m 6,8 km/h (2 Bft) 95,74 %
28.07.2018 02:54 25,6 C 25,0 C 23,3 C 54 % 1004,9 hPa 0,0 l/m 0 min 0 min 0 W/m 9,0 km/h (2 Bft) 97,87 %
28.07.2018 02:56 25,6 C 25,0 C 23,3 C 54 % 1004,9 hPa 0,0 l/m 0 min 0 min 0 W/m 6,8 km/h (2 Bft) 97,87 %
28.07.2018 02:58 25,6 C 24,4 C 23,3 C 54 % 1004,8 hPa 0,0 l/m 0 min 0 min 0 W/m 9,0 km/h (2 Bft) 97,83 %
28.07.2018 03:00 25,6 C 25,0 C 23,3 C 54 % 1004,7 hPa 0,0 l/m 0 min 0 min 0 W/m 6,8 km/h (2 Bft) 95,74 %
28.07.2018 03:02 25,6 C 25,0 C 23,3 C 54 % 1004,6 hPa 0,0 l/m 0 min 0 min 0 W/m 6,8 km/h (2 Bft) 97,67 %
28.07.2018 03:04 25,6 C 25,0 C 23,3 C 54 % 1004,7 hPa 0,0 l/m 0 min 0 min 0 W/m 6,8 km/h (2 Bft) 98,00 %
28.07.2018 03:06 25,6 C 25,0 C 23,3 C 54 % 1004,6 hPa 0,0 l/m 0 min 0 min 0 W/m 6,8 km/h (2 Bft) 97,83 %
28.07.2018 03:08 25,6 C 24,4 C 23,3 C 54 % 1004,7 hPa 0,0 l/m 0 min 0 min 0 W/m 4,5 km/h (1 Bft) 97,87 %
28.07.2018 03:10 25,6 C 24,4 C 23,3 C 54 % 1004,7 hPa 0,0 l/m 0 min 0 min 0 W/m 4,5 km/h (1 Bft) 97,87 %
28.07.2018 03:12 25,5 C 24,4 C 23,3 C 54 % 1004,7 hPa 0,0 l/m 0 min 0 min 0 W/m 4,5 km/h (1 Bft) 97,87 %
28.07.2018 03:14 25,5 C 24,4 C 23,3 C 54 % 1004,7 hPa 0,0 l/m 0 min 0 min 0 W/m 6,8 km/h (2 Bft) 97,87 %
28.07.2018 03:16 25,5 C 24,4 C 23,3 C 54 % 1004,7 hPa 0,0 l/m 0 min 0 min 0 W/m 4,5 km/h (1 Bft) 95,65 %
28.07.2018 03:18 25,5 C 24,4 C 23,3 C 55 % 1004,7 hPa 0,0 l/m 0 min 0 min 0 W/m 6,8 km/h (2 Bft) 97,96 %
28.07.2018 03:20 25,5 C 24,4 C 23,3 C 55 % 1004,8 hPa 0,0 l/m 0 min 0 min 0 W/m 4,5 km/h (1 Bft) 95,74 %
28.07.2018 03:22 25,4 C 24,4 C 22,8 C 55 % 1004,7 hPa 0,0 l/m 0 min 0 min 0 W/m 4,5 km/h (1 Bft) 97,87 %
28.07.2018 03:24 25,4 C 24,4 C 22,8 C 55 % 1004,6 hPa 0,0 l/m 0 min 0 min 0 W/m 6,8 km/h (2 Bft) 97,92 %
28.07.2018 03:26 25,4 C 23,9 C 22,8 C 55 % 1004,5 hPa 0,0 l/m 0 min 0 min 0 W/m 9,0 km/h (2 Bft) 100,00 %
28.07.2018 03:28 25,4 C 23,9 C 22,8 C 55 % 1004,5 hPa 0,0 l/m 0 min 0 min 0 W/m 6,8 km/h (2 Bft) 100,00 %
28.07.2018 03:30 25,4 C 23,9 C 22,8 C 55 % 1004,4 hPa 0,0 l/m 0 min 0 min 0 W/m 4,5 km/h (1 Bft) 100,00 %
28.07.2018 03:32 25,4 C 23,9 C 22,8 C 55 % 1004,4 hPa 0,0 l/m 0 min 0 min 0 W/m 4,5 km/h (1 Bft) 91,49 %
28.07.2018 03:34 25,3 C 23,9 C 22,8 C 55 % 1004,4 hPa 0,0 l/m 0 min 0 min 0 W/m 2,3 km/h (1 Bft) 95,74 %
28.07.2018 03:36 25,3 C 23,9 C 22,8 C 55 % 1004,3 hPa 0,0 l/m 0 min 0 min 0 W/m 2,3 km/h (1 Bft) 95,74 %
28.07.2018 03:38 25,3 C 23,9 C 22,8 C 55 % 1004,4 hPa 0,0 l/m 0 min 0 min 0 W/m 4,5 km/h (1 Bft) 97,62 %
28.07.2018 03:40 25,2 C 23,9 C 22,8 C 55 % 1004,2 hPa 0,0 l/m 0 min 0 min 0 W/m 6,8 km/h (2 Bft) 95,83 %
28.07.2018 03:42 25,2 C 23,9 C 22,8 C 56 % 1004,3 hPa 0,0 l/m 0 min 0 min 0 W/m 4,5 km/h (1 Bft) 95,83 %
28.07.2018 03:44 25,2 C 23,9 C 22,8 C 56 % 1004,3 hPa 0,0 l/m 0 min 0 min 0 W/m 4,5 km/h (1 Bft) 95,74 %
28.07.2018 03:46 25,2 C 23,9 C 22,2 C 56 % 1004,3 hPa 0,0 l/m 0 min 0 min 0 W/m 6,8 km/h (2 Bft) 93,62 %
28.07.2018 03:48 25,1 C 23,9 C 22,2 C 56 % 1004,3 hPa 0,0 l/m 0 min 0 min 0 W/m 2,3 km/h (1 Bft) 97,87 %
28.07.2018 03:50 25,1 C 23,3 C 22,2 C 56 % 1004,2 hPa 0,0 l/m 0 min 0 min 0 W/m 2,3 km/h (1 Bft) 95,74 %
28.07.2018 03:52 25,1 C 23,3 C 22,2 C 56 % 1004,3 hPa 0,0 l/m 0 min 0 min 0 W/m 4,5 km/h (1 Bft) 97,87 %
28.07.2018 03:54 25,1 C 23,3 C 22,2 C 56 % 1004,3 hPa 0,0 l/m 0 min 0 min 0 W/m 4,5 km/h (1 Bft) 95,74 %
28.07.2018 03:56 25,1 C 23,3 C 22,2 C 56 % 1004,3 hPa 0,0 l/m 0 min 0 min 0 W/m 2,3 km/h (1 Bft) 95,83 %
28.07.2018 03:58 25,0 C 23,3 C 22,2 C 56 % 1004,2 hPa 0,0 l/m 0 min 0 min 0 W/m 2,3 km/h (1 Bft) 95,74 %
28.07.2018 04:00 25,0 C 23,3 C 22,2 C 56 % 1004,2 hPa 0,0 l/m 0 min 0 min 0 W/m 4,5 km/h (1 Bft) 95,74 %
28.07.2018 04:02 24,9 C 23,3 C 22,2 C 57 % 1004,2 hPa 0,0 l/m 0 min 0 min 0 W/m 2,3 km/h (1 Bft) 94,12 %
28.07.2018 04:04 24,9 C 23,3 C 22,2 C 57 % 1004,2 hPa 0,0 l/m 0 min 0 min 0 W/m 2,3 km/h (1 Bft) 93,62 %
28.07.2018 04:06 24,8 C 23,3 C 22,2 C 57 % 1004,2 hPa 0,0 l/m 0 min 0 min 0 W/m 2,3 km/h (1 Bft) 93,62 %
28.07.2018 04:08 24,8 C 23,3 C 22,2 C 57 % 1004,1 hPa 0,0 l/m 0 min 0 min 0 W/m 4,5 km/h (1 Bft) 95,83 %
28.07.2018 04:10 24,7 C 23,3 C 22,2 C 57 % 1004,1 hPa 0,0 l/m 0 min 0 min 0 W/m 4,5 km/h (1 Bft) 95,74 %
28.07.2018 04:12 24,7 C 23,3 C 22,2 C 57 % 1004,1 hPa 0,0 l/m 0 min 0 min 0 W/m 4,5 km/h (1 Bft) 95,74 %
28.07.2018 04:14 24,7 C 23,3 C 22,2 C 57 % 1004,0 hPa 0,0 l/m 0 min 0 min 0 W/m 2,3 km/h (1 Bft) 97,87 %
28.07.2018 04:16 24,6 C 23,3 C 22,2 C 57 % 1004,0 hPa 0,0 l/m 0 min 0 min 0 W/m 6,8 km/h (2 Bft) 95,65 %
28.07.2018 04:18 24,6 C 23,3 C 22,2 C 57 % 1004,0 hPa 0,0 l/m 0 min 0 min 0 W/m 6,8 km/h (2 Bft) 95,74 %
28.07.2018 04:20 24,5 C 23,3 C 22,2 C 57 % 1003,9 hPa 0,0 l/m 0 min 0 min 0 W/m 4,5 km/h (1 Bft) 97,87 %
28.07.2018 04:22 24,5 C 23,3 C 22,2 C 57 % 1003,9 hPa 0,0 l/m 0 min 0 min 0 W/m 4,5 km/h (1 Bft) 96,00 %
28.07.2018 04:24 24,4 C 23,3 C 22,2 C 58 % 1003,8 hPa 0,0 l/m 0 min 0 min 0 W/m 6,8 km/h (2 Bft) 97,14 %
28.07.2018 04:26 24,4 C 23,3 C 22,2 C 58 % 1003,9 hPa 0,0 l/m 0 min 0 min 0 W/m 2,3 km/h (1 Bft) 95,74 %
28.07.2018 04:28 24,4 C 22,8 C 22,2 C 58 % 1003,9 hPa 0,0 l/m 0 min 0 min 0 W/m 4,5 km/h (1 Bft) 97,87 %
28.07.2018 04:30 24,3 C 22,8 C 22,2 C 58 % 1003,9 hPa 0,0 l/m 0 min 0 min 0 W/m 2,3 km/h (1 Bft) 95,65 %
28.07.2018 04:32 24,3 C 22,8 C 22,2 C 58 % 1004,1 hPa 0,0 l/m 0 min 0 min 0 W/m 6,8 km/h (2 Bft) 97,87 %
28.07.2018 04:34 24,3 C 22,8 C 22,8 C 58 % 1004,9 hPa 0,0 l/m 0 min 0 min 0 W/m 11,3 km/h (2 Bft) 97,87 %
28.07.2018 04:36 24,2 C 22,8 C 22,8 C 58 % 1005,1 hPa 0,0 l/m 0 min 0 min 0 W/m 6,8 km/h (2 Bft) 97,87 %
28.07.2018 04:38 24,2 C 23,3 C 22,8 C 60 % 1005,0 hPa 0,0 l/m 0 min 0 min 0 W/m 13,5 km/h (3 Bft) 97,87 %
28.07.2018 04:40 24,2 C 23,3 C 22,8 C 62 % 1004,7 hPa 0,0 l/m 0 min 0 min 0 W/m 6,8 km/h (2 Bft) 97,56 %
28.07.2018 04:42 24,2 C 23,3 C 22,8 C 63 % 1005,0 hPa 0,0 l/m 0 min 0 min 0 W/m 11,3 km/h (2 Bft) 97,92 %
28.07.2018 04:44 24,1 C 23,3 C 22,8 C 64 % 1005,0 hPa 0,0 l/m 0 min 0 min 0 W/m 9,0 km/h (2 Bft) 97,87 %
28.07.2018 04:46 24,1 C 23,3 C 22,8 C 64 % 1004,8 hPa 0,0 l/m 0 min 0 min 0 W/m 13,5 km/h (3 Bft) 100,00 %
28.07.2018 04:48 24,1 C 23,3 C 22,8 C 65 % 1004,7 hPa 0,0 l/m 0 min 0 min 0 W/m 11,3 km/h (2 Bft) 100,00 %
28.07.2018 04:50 24,1 C 23,3 C 22,8 C 66 % 1005,0 hPa 0,0 l/m 0 min 0 min 0 W/m 9,0 km/h (2 Bft) 97,87 %
28.07.2018 04:52 24,1 C 23,3 C 22,8 C 66 % 1004,9 hPa 0,0 l/m 0 min 0 min 0 W/m 9,0 km/h (2 Bft) 100,00 %
28.07.2018 04:54 24,1 C 23,3 C 22,8 C 66 % 1004,1 hPa 0,0 l/m 0 min 0 min 0 W/m 6,8 km/h (2 Bft) 100,00 %
28.07.2018 04:56 24,1 C 22,8 C 22,8 C 67 % 1004,5 hPa 0,0 l/m 0 min 0 min 0 W/m 6,8 km/h (2 Bft) 100,00 %
28.07.2018 04:58 24,1 C 22,8 C 22,8 C 67 % 1004,8 hPa 0,0 l/m 0 min 0 min 0 W/m 11,3 km/h (2 Bft) 100,00 %
28.07.2018 05:00 24,0 C 23,3 C 22,8 C 67 % 1004,9 hPa 0,0 l/m 0 min 0 min 0 W/m 11,3 km/h (2 Bft) 100,00 %
28.07.2018 05:02 24,0 C 22,8 C 22,8 C 68 % 1004,6 hPa 0,0 l/m 0 min 0 min 0 W/m 11,3 km/h (2 Bft) 100,00 %
28.07.2018 05:04 24,0 C 22,8 C 22,8 C 68 % 1004,6 hPa 0,0 l/m 0 min 0 min 0 W/m 9,0 km/h (2 Bft) 100,00 %
28.07.2018 05:06 23,9 C 22,8 C 22,8 C 68 % 1004,8 hPa 0,0 l/m 0 min 2 min 0 W/m 9,0 km/h (2 Bft) 97,83 %
28.07.2018 05:08 23,9 C 22,8 C 22,8 C 68 % 1004,8 hPa 0,0 l/m 0 min 0 min 0 W/m 9,0 km/h (2 Bft) 100,00 %
28.07.2018 05:10 23,9 C 22,8 C 22,8 C 69 % 1004,6 hPa 0,0 l/m 0 min 0 min 0 W/m 6,8 km/h (2 Bft) 100,00 %
28.07.2018 05:12 23,9 C 22,8 C 22,2 C 69 % 1004,4 hPa 0,0 l/m 0 min 2 min 0 W/m 6,8 km/h (2 Bft) 100,00 %
28.07.2018 05:14 23,9 C 22,8 C 22,2 C 69 % 1004,4 hPa 0,0 l/m 0 min 0 min 0 W/m 6,8 km/h (2 Bft) 100,00 %
28.07.2018 05:16 23,8 C 22,2 C 22,2 C 70 % 1004,6 hPa 0,0 l/m 0 min 0 min 0 W/m 9,0 km/h (2 Bft) 100,00 %
28.07.2018 05:18 23,8 C 22,2 C 22,2 C 70 % 1004,7 hPa 0,0 l/m 0 min 2 min 0 W/m 6,8 km/h (2 Bft) 100,00 %
28.07.2018 05:20 23,8 C 22,2 C 22,2 C 71 % 1004,7 hPa 0,0 l/m 0 min 0 min 0 W/m 6,8 km/h (2 Bft) 100,00 %
28.07.2018 05:22 23,7 C 22,2 C 22,2 C 71 % 1004,7 hPa 0,0 l/m 0 min 0 min 0 W/m 4,5 km/h (1 Bft) 100,00 %
28.07.2018 05:24 23,7 C 22,2 C 22,2 C 71 % 1004,6 hPa 0,0 l/m 0 min 0 min 0 W/m 6,8 km/h (2 Bft) 100,00 %
28.07.2018 05:26 23,7 C 22,2 C 21,7 C 72 % 1004,5 hPa 0,0 l/m 0 min 0 min 0 W/m 9,0 km/h (2 Bft) 97,87 %
28.07.2018 05:28 23,6 C 22,2 C 21,7 C 72 % 1004,6 hPa 0,0 l/m 0 min 0 min 0 W/m 6,8 km/h (2 Bft) 100,00 %
28.07.2018 05:30 23,6 C 22,2 C 21,7 C 72 % 1004,6 hPa 0,0 l/m 0 min 0 min 0 W/m 6,8 km/h (2 Bft) 97,87 %
28.07.2018 05:32 23,5 C 22,2 C 21,7 C 72 % 1004,6 hPa 0,0 l/m 0 min 0 min 0 W/m 6,8 km/h (2 Bft) 100,00 %
28.07.2018 05:34 23,5 C 22,2 C 21,7 C 72 % 1004,4 hPa 0,0 l/m 0 min 0 min 0 W/m 4,5 km/h (1 Bft) 100,00 %
28.07.2018 05:35 23,4 C 21,7 C 21,7 C 72 % 1004,5 hPa 0,0 l/m 0 min 0 min 0 W/m 6,8 km/h (2 Bft) 100,00 %
28.07.2018 05:40 23,3 C 21,7 C 21,7 C 73 % 1004,6 hPa 0,0 l/m 0 min 0 min 0 W/m 11,3 km/h (2 Bft) 100,00 %
28.07.2018 05:42 23,3 C 21,7 C 21,7 C 73 % 1004,2 hPa 0,0 l/m 0 min 0 min 0 W/m 4,5 km/h (1 Bft) 93,62 %
28.07.2018 05:44 23,2 C 21,7 C 21,7 C 74 % 1004,2 hPa 0,0 l/m 0 min 0 min 0 W/m 6,8 km/h (2 Bft) 93,62 %
28.07.2018 05:46 23,2 C 21,7 C 21,7 C 74 % 1004,4 hPa 0,0 l/m 0 min 0 min 0 W/m 6,8 km/h (2 Bft) 97,87 %
28.07.2018 05:48 23,1 C 21,7 C 21,7 C 74 % 1004,6 hPa 0,0 l/m 0 min 0 min 0 W/m 4,5 km/h (1 Bft) 100,00 %
28.07.2018 05:50 23,1 C 21,7 C 21,7 C 74 % 1004,6 hPa 0,0 l/m 0 min 0 min 4 W/m 6,8 km/h (2 Bft) 95,65 %
28.07.2018 05:52 23,1 C 21,7 C 21,1 C 74 % 1004,4 hPa 0,0 l/m 0 min 0 min 5 W/m 6,8 km/h (2 Bft) 95,83 %
28.07.2018 05:55 22,9 C 21,1 C 21,1 C 74 % 1004,3 hPa 0,0 l/m 0 min 0 min 5 W/m 9,0 km/h (2 Bft) 100,00 %
28.07.2018 06:00 22,8 C 21,1 C 21,1 C 75 % 1004,3 hPa 0,0 l/m 0 min 0 min 7 W/m 4,5 km/h (1 Bft) 100,00 %
28.07.2018 06:05 22,7 C 21,1 C 21,1 C 75 % 1004,2 hPa 0,0 l/m 0 min 0 min 10 W/m 6,8 km/h (2 Bft) 100,00 %
28.07.2018 06:10 22,6 C 21,1 C 21,1 C 76 % 1004,1 hPa 0,0 l/m 0 min 0 min 12 W/m 6,8 km/h (2 Bft) 96,49 %
28.07.2018 06:15 22,5 C 21,1 C 20,6 C 76 % 1004,0 hPa 0,0 l/m 0 min 0 min 15 W/m 6,8 km/h (2 Bft) 97,37 %
28.07.2018 06:20 22,4 C 21,1 C 20,6 C 76 % 1003,7 hPa 0,0 l/m 0 min 0 min 19 W/m 4,5 km/h (1 Bft) 98,25 %
28.07.2018 06:25 22,3 C 20,6 C 20,6 C 76 % 1003,8 hPa 0,0 l/m 0 min 0 min 23 W/m 6,8 km/h (2 Bft) 96,49 %
28.07.2018 06:30 22,2 C 20,6 C 20,6 C 77 % 1003,8 hPa 0,0 l/m 0 min 0 min 27 W/m 2,3 km/h (1 Bft) 98,25 %
28.07.2018 06:32 22,2 C 20,6 C 20,6 C 77 % 1003,8 hPa 0,0 l/m 0 min 0 min 32 W/m 0,0 km/h (0 Bft) 94,87 %
28.07.2018 06:34 22,2 C 20,6 C 20,6 C 77 % 1003,8 hPa 0,0 l/m 0 min 0 min 33 W/m 0,0 km/h (0 Bft) 95,74 %
28.07.2018 06:36 22,1 C 20,6 C 20,6 C 77 % 1003,9 hPa 0,0 l/m 0 min 0 min 36 W/m 2,3 km/h (1 Bft) 95,24 %
28.07.2018 06:38 22,1 C 20,6 C 20,6 C 77 % 1003,9 hPa 0,0 l/m 0 min 0 min 39 W/m 2,3 km/h (1 Bft) 94,23 %
28.07.2018 06:40 22,1 C 20,6 C 20,6 C 77 % 1003,9 hPa 0,0 l/m 0 min 0 min 42 W/m 0,0 km/h (0 Bft) 93,62 %
28.07.2018 06:42 22,1 C 21,1 C 20,6 C 76 % 1003,9 hPa 0,0 l/m 0 min 0 min 46 W/m 0,0 km/h (0 Bft) 91,30 %
28.07.2018 06:44 22,1 C 21,1 C 20,6 C 77 % 1003,8 hPa 0,0 l/m 0 min 0 min 51 W/m 0,0 km/h (0 Bft) 93,62 %
28.07.2018 06:46 22,1 C 21,1 C 21,1 C 77 % 1003,7 hPa 0,0 l/m 2 min 0 min 56 W/m 0,0 km/h (0 Bft) 95,74 %
28.07.2018 06:48 22,0 C 21,1 C 21,1 C 77 % 1003,8 hPa 0,0 l/m 2 min 0 min 60 W/m 0,0 km/h (0 Bft) 95,74 %
28.07.2018 06:50 22,0 C 21,1 C 21,1 C 77 % 1003,8 hPa 0,0 l/m 2 min 0 min 66 W/m 0,0 km/h (0 Bft) 95,74 %
28.07.2018 06:52 21,9 C 21,1 C 21,1 C 77 % 1003,8 hPa 0,0 l/m 2 min 0 min 72 W/m 0,0 km/h (0 Bft) 95,35 %
28.07.2018 06:54 21,9 C 21,7 C 21,1 C 77 % 1003,7 hPa 0,0 l/m 2 min 0 min 88 W/m 0,0 km/h (0 Bft) 96,00 %
28.07.2018 06:56 21,9 C 21,7 C 21,1 C 77 % 1003,7 hPa 0,0 l/m 2 min 0 min 101 W/m 0,0 km/h (0 Bft) 100,00 %
28.07.2018 06:58 21,9 C 21,7 C 21,1 C 77 % 1003,7 hPa 0,0 l/m 2 min 0 min 110 W/m 0,0 km/h (0 Bft) 95,74 %
28.07.2018 07:00 21,9 C 22,2 C 21,1 C 77 % 1003,7 hPa 0,0 l/m 2 min 0 min 116 W/m 0,0 km/h (0 Bft) 97,87 %
28.07.2018 07:02 21,9 C 22,2 C 21,1 C 77 % 1003,7 hPa 0,0 l/m 2 min 0 min 121 W/m 0,0 km/h (0 Bft) 95,65 %
28.07.2018 07:04 21,9 C 22,2 C 21,1 C 77 % 1003,7 hPa 0,0 l/m 2 min 0 min 127 W/m 2,3 km/h (1 Bft) 97,87 %
28.07.2018 07:06 21,9 C 22,2 C 21,1 C 77 % 1003,7 hPa 0,0 l/m 2 min 0 min 132 W/m 4,5 km/h (1 Bft) 93,62 %
28.07.2018 07:08 21,9 C 22,8 C 21,1 C 77 % 1003,6 hPa 0,0 l/m 2 min 0 min 131 W/m 4,5 km/h (1 Bft) 95,74 %
28.07.2018 07:10 21,9 C 22,8 C 21,1 C 78 % 1003,6 hPa 0,0 l/m 2 min 0 min 127 W/m 0,0 km/h (0 Bft) 97,87 %
28.07.2018 07:12 21,9 C 22,8 C 21,7 C 78 % 1003,5 hPa 0,0 l/m 2 min 0 min 121 W/m 6,8 km/h (2 Bft) 95,74 %
28.07.2018 07:14 21,9 C 22,8 C 21,7 C 78 % 1003,5 hPa 0,0 l/m 2 min 0 min 112 W/m 2,3 km/h (1 Bft) 97,83 %
28.07.2018 07:16 22,0 C 22,8 C 21,7 C 78 % 1003,6 hPa 0,0 l/m 2 min 0 min 102 W/m 2,3 km/h (1 Bft) 97,87 %
28.07.2018 07:18 22,0 C 22,8 C 21,7 C 78 % 1003,5 hPa 0,0 l/m 0 min 0 min 92 W/m 4,5 km/h (1 Bft) 97,87 %
28.07.2018 07:20 22,0 C 22,8 C 21,7 C 78 % 1003,5 hPa 0,0 l/m 0 min 0 min 86 W/m 2,3 km/h (1 Bft) 97,87 %
28.07.2018 07:22 22,0 C 22,8 C 21,7 C 78 % 1003,5 hPa 0,0 l/m 0 min 0 min 79 W/m 6,8 km/h (2 Bft) 97,87 %
28.07.2018 07:24 22,0 C 22,8 C 21,7 C 77 % 1003,5 hPa 0,0 l/m 0 min 0 min 67 W/m 4,5 km/h (1 Bft) 97,87 %
28.07.2018 07:26 22,1 C 22,8 C 21,7 C 77 % 1003,5 hPa 0,0 l/m 0 min 0 min 51 W/m 9,0 km/h (2 Bft) 97,87 %
28.07.2018 07:28 22,1 C 22,8 C 21,7 C 77 % 1003,6 hPa 0,0 l/m 0 min 0 min 38 W/m 4,5 km/h (1 Bft) 97,87 %
28.07.2018 07:30 22,1 C 22,8 C 22,2 C 77 % 1003,7 hPa 0,0 l/m 0 min 0 min 29 W/m 2,3 km/h (1 Bft) 97,83 %
28.07.2018 07:32 22,1 C 22,8 C 21,7 C 77 % 1004,2 hPa 0,0 l/m 0 min 0 min 22 W/m 4,5 km/h (1 Bft) 95,74 %
28.07.2018 07:34 22,2 C 22,8 C 22,2 C 77 % 1004,6 hPa 0,0 l/m 0 min 0 min 18 W/m 4,5 km/h (1 Bft) 97,87 %
28.07.2018 07:36 22,2 C 22,8 C 22,2 C 77 % 1004,9 hPa 0,0 l/m 0 min 0 min 15 W/m 4,5 km/h (1 Bft) 95,74 %
28.07.2018 07:38 22,3 C 22,8 C 22,2 C 76 % 1005,1 hPa 0,0 l/m 0 min 0 min 14 W/m 6,8 km/h (2 Bft) 93,62 %
28.07.2018 07:40 22,4 C 22,8 C 22,2 C 76 % 1005,1 hPa 0,0 l/m 0 min 0 min 14 W/m 13,5 km/h (3 Bft) 97,83 %
28.07.2018 07:42 22,4 C 22,2 C 22,2 C 77 % 1005,0 hPa 0,0 l/m 0 min 2 min 16 W/m 11,3 km/h (2 Bft) 97,87 %
28.07.2018 07:44 22,5 C 21,7 C 21,7 C 77 % 1005,0 hPa 0,0 l/m 0 min 2 min 16 W/m 6,8 km/h (2 Bft) 97,87 %
28.07.2018 07:46 22,6 C 21,1 C 21,7 C 77 % 1005,0 hPa 0,0 l/m 0 min 2 min 16 W/m 9,0 km/h (2 Bft) 97,87 %
28.07.2018 07:48 22,6 C 21,1 C 21,7 C 77 % 1004,9 hPa 0,0 l/m 0 min 2 min 16 W/m 6,8 km/h (2 Bft) 97,87 %
28.07.2018 07:50 22,6 C 21,7 C 21,7 C 77 % 1004,7 hPa 0,0 l/m 0 min 0 min 17 W/m 6,8 km/h (2 Bft) 100,00 %
28.07.2018 07:52 22,6 C 21,7 C 21,7 C 76 % 1004,6 hPa 0,0 l/m 0 min 0 min 19 W/m 6,8 km/h (2 Bft) 97,83 %
28.07.2018 07:54 22,6 C 21,7 C 21,1 C 77 % 1004,5 hPa 0,0 l/m 0 min 0 min 21 W/m 6,8 km/h (2 Bft) 100,00 %
28.07.2018 07:56 22,6 C 21,7 C 21,1 C 76 % 1004,7 hPa 0,0 l/m 0 min 0 min 21 W/m 6,8 km/h (2 Bft) 100,00 %
28.07.2018 07:58 22,6 C 21,7 C 21,1 C 77 % 1004,6 hPa 0,0 l/m 0 min 2 min 21 W/m 6,8 km/h (2 Bft) 100,00 %
28.07.2018 08:00 22,6 C 21,7 C 21,1 C 77 % 1004,3 hPa 0,0 l/m 0 min 2 min 19 W/m 9,0 km/h (2 Bft) 100,00 %
28.07.2018 08:02 22,6 C 21,1 C 21,1 C 77 % 1004,1 hPa 0,0 l/m 0 min 2 min 20 W/m 11,3 km/h (2 Bft) 97,87 %
28.07.2018 08:04 22,6 C 20,0 C 20,0 C 78 % 1004,3 hPa 0,2 l/m 0 min 2 min 24 W/m 6,8 km/h (2 Bft) 100,00 %
28.07.2018 08:06 22,6 C 18,9 C 19,4 C 78 % 1004,6 hPa 0,0 l/m 0 min 2 min 32 W/m 2,3 km/h (1 Bft) 100,00 %
28.07.2018 08:08 22,6 C 18,9 C 18,9 C 79 % 1004,8 hPa 0,0 l/m 0 min 2 min 43 W/m 4,5 km/h (1 Bft) 100,00 %
28.07.2018 08:10 22,6 C 18,9 C 18,9 C 80 % 1004,8 hPa 0,2 l/m 0 min 2 min 59 W/m 2,3 km/h (1 Bft) 100,00 %
28.07.2018 08:12 22,6 C 19,4 C 18,9 C 81 % 1004,7 hPa 0,0 l/m 0 min 0 min 80 W/m 0,0 km/h (0 Bft) 100,00 %
28.07.2018 08:14 22,6 C 19,4 C 19,4 C 82 % 1004,7 hPa 0,0 l/m 0 min 0 min 100 W/m 2,3 km/h (1 Bft) 100,00 %
28.07.2018 08:16 22,6 C 19,4 C 19,4 C 83 % 1004,6 hPa 0,0 l/m 0 min 0 min 112 W/m 4,5 km/h (1 Bft) 100,00 %
28.07.2018 08:18 22,6 C 20,0 C 19,4 C 83 % 1004,6 hPa 0,0 l/m 0 min 0 min 120 W/m 2,3 km/h (1 Bft) 100,00 %
28.07.2018 08:20 22,5 C 20,0 C 19,4 C 83 % 1004,5 hPa 0,0 l/m 0 min 0 min 127 W/m 0,0 km/h (0 Bft) 97,87 %
28.07.2018 08:22 22,5 C 19,4 C 19,4 C 84 % 1004,5 hPa 0,0 l/m 0 min 0 min 131 W/m 0,0 km/h (0 Bft) 100,00 %
28.07.2018 08:24 22,4 C 19,4 C 19,4 C 84 % 1004,4 hPa 0,0 l/m 0 min 0 min 134 W/m 2,3 km/h (1 Bft) 100,00 %
28.07.2018 08:26 22,4 C 20,0 C 19,4 C 84 % 1004,5 hPa 0,0 l/m 0 min 0 min 132 W/m 0,0 km/h (0 Bft) 100,00 %
28.07.2018 08:28 22,3 C 20,0 C 19,4 C 84 % 1004,4 hPa 0,0 l/m 0 min 0 min 127 W/m 0,0 km/h (0 Bft) 100,00 %
28.07.2018 08:30 22,3 C 19,4 C 20,0 C 84 % 1004,5 hPa 0,0 l/m 0 min 0 min 119 W/m 2,3 km/h (1 Bft) 100,00 %
28.07.2018 08:32 22,3 C 20,0 C 20,0 C 84 % 1004,5 hPa 0,0 l/m 0 min 0 min 110 W/m 0,0 km/h (0 Bft) 100,00 %
28.07.2018 08:34 22,3 C 20,0 C 20,0 C 84 % 1004,5 hPa 0,0 l/m 0 min 0 min 98 W/m 0,0 km/h (0 Bft) 100,00 %
28.07.2018 08:36 22,3 C 20,0 C 20,0 C 85 % 1004,5 hPa 0,0 l/m 0 min 0 min 89 W/m 0,0 km/h (0 Bft) 100,00 %
28.07.2018 08:38 22,2 C 20,0 C 20,0 C 85 % 1004,5 hPa 0,0 l/m 0 min 0 min 86 W/m 0,0 km/h (0 Bft) 100,00 %
28.07.2018 08:40 22,2 C 20,0 C 20,0 C 85 % 1004,6 hPa 0,0 l/m 0 min 0 min 91 W/m 0,0 km/h (0 Bft) 100,00 %
28.07.2018 08:42 22,2 C 20,0 C 20,0 C 85 % 1004,7 hPa 0,0 l/m 0 min 0 min 99 W/m 0,0 km/h (0 Bft) 97,87 %
28.07.2018 08:44 22,2 C 20,0 C 20,6 C 85 % 1004,7 hPa 0,0 l/m 0 min 0 min 105 W/m 0,0 km/h (0 Bft) 100,00 %
28.07.2018 08:46 22,1 C 20,0 C 20,6 C 85 % 1004,8 hPa 0,0 l/m 0 min 0 min 111 W/m 0,0 km/h (0 Bft) 100,00 %
28.07.2018 08:48 22,1 C 20,0 C 20,6 C 86 % 1004,9 hPa 0,0 l/m 0 min 0 min 115 W/m 0,0 km/h (0 Bft) 97,87 %
28.07.2018 08:50 22,1 C 20,6 C 20,6 C 86 % 1004,9 hPa 0,0 l/m 0 min 0 min 120 W/m 0,0 km/h (0 Bft) 97,87 %
28.07.2018 08:52 22,1 C 21,1 C 20,6 C 86 % 1005,0 hPa 0,0 l/m 0 min 0 min 128 W/m 0,0 km/h (0 Bft) 95,65 %
28.07.2018 08:54 22,1 C 21,1 C 21,1 C 86 % 1005,2 hPa 0,0 l/m 0 min 0 min 136 W/m 4,5 km/h (1 Bft) 97,87 %
28.07.2018 08:56 22,1 C 21,7 C 21,1 C 86 % 1005,4 hPa 0,0 l/m 0 min 0 min 143 W/m 6,8 km/h (2 Bft) 93,62 %
28.07.2018 08:58 22,1 C 21,7 C 21,1 C 86 % 1005,4 hPa 0,0 l/m 0 min 0 min 149 W/m 4,5 km/h (1 Bft) 97,87 %
28.07.2018 09:00 22,1 C 21,7 C 21,1 C 86 % 1005,4 hPa 0,0 l/m 0 min 0 min 154 W/m 6,8 km/h (2 Bft) 97,87 %
28.07.2018 09:02 22,1 C 21,7 C 21,1 C 86 % 1005,5 hPa 0,0 l/m 0 min 0 min 156 W/m 6,8 km/h (2 Bft) 95,65 %
28.07.2018 09:04 22,1 C 21,7 C 21,1 C 86 % 1005,6 hPa 0,0 l/m 0 min 0 min 159 W/m 4,5 km/h (1 Bft) 97,87 %
28.07.2018 09:06 22,0 C 21,7 C 21,1 C 86 % 1005,5 hPa 0,0 l/m 0 min 0 min 164 W/m 4,5 km/h (1 Bft) 98,15 %
28.07.2018 09:08 22,1 C 21,7 C 21,1 C 86 % 1005,5 hPa 0,0 l/m 0 min 0 min 171 W/m 2,3 km/h (1 Bft) 97,83 %
28.07.2018 09:10 22,1 C 21,7 C 21,1 C 87 % 1005,5 hPa 0,0 l/m 0 min 0 min 176 W/m 6,8 km/h (2 Bft) 97,87 %
28.07.2018 09:12 22,1 C 22,2 C 21,1 C 86 % 1005,6 hPa 0,0 l/m 0 min 0 min 180 W/m 0,0 km/h (0 Bft) 97,87 %
28.07.2018 09:14 22,1 C 22,2 C 21,1 C 87 % 1005,6 hPa 0,0 l/m 0 min 0 min 182 W/m 2,3 km/h (1 Bft) 95,74 %
28.07.2018 09:16 22,1 C 21,7 C 21,1 C 87 % 1005,6 hPa 0,0 l/m 0 min 0 min 181 W/m 4,5 km/h (1 Bft) 95,74 %
28.07.2018 09:18 22,1 C 21,7 C 21,1 C 86 % 1005,6 hPa 0,0 l/m 0 min 0 min 178 W/m 6,8 km/h (2 Bft) 93,62 %
28.07.2018 09:20 22,1 C 21,7 C 21,1 C 86 % 1005,6 hPa 0,0 l/m 0 min 0 min 174 W/m 4,5 km/h (1 Bft) 95,65 %
28.07.2018 09:22 22,1 C 21,7 C 21,1 C 86 % 1005,5 hPa 0,0 l/m 0 min 0 min 177 W/m 4,5 km/h (1 Bft) 95,83 %
28.07.2018 09:24 22,1 C 22,2 C 21,1 C 86 % 1005,4 hPa 0,0 l/m 0 min 0 min 185 W/m 4,5 km/h (1 Bft) 97,14 %
28.07.2018 09:26 22,1 C 22,2 C 21,1 C 86 % 1005,5 hPa 0,0 l/m 0 min 0 min 198 W/m 2,3 km/h (1 Bft) 95,74 %
28.07.2018 09:28 22,1 C 22,2 C 21,1 C 86 % 1005,4 hPa 0,0 l/m 0 min 0 min 212 W/m 0,0 km/h (0 Bft) 95,74 %
28.07.2018 09:30 22,1 C 22,8 C 21,1 C 86 % 1005,4 hPa 0,0 l/m 0 min 0 min 226 W/m 0,0 km/h (0 Bft) 93,62 %
28.07.2018 09:32 22,1 C 22,2 C 21,1 C 86 % 1005,4 hPa 0,0 l/m 0 min 0 min 231 W/m 9,0 km/h (2 Bft) 95,74 %
28.07.2018 09:34 22,1 C 22,2 C 21,1 C 86 % 1005,4 hPa 0,0 l/m 0 min 0 min 215 W/m 2,3 km/h (1 Bft) 95,74 %
28.07.2018 09:36 22,1 C 22,8 C 21,1 C 85 % 1005,4 hPa 0,0 l/m 0 min 0 min 205 W/m 2,3 km/h (1 Bft) 94,00 %
28.07.2018 09:38 22,2 C 22,8 C 21,1 C 85 % 1005,4 hPa 0,0 l/m 0 min 0 min 208 W/m 4,5 km/h (1 Bft) 93,62 %
28.07.2018 09:40 22,2 C 22,8 C 21,1 C 85 % 1005,3 hPa 0,0 l/m 0 min 0 min 216 W/m 2,3 km/h (1 Bft) 95,74 %
28.07.2018 09:42 22,2 C 22,8 C 21,1 C 85 % 1005,2 hPa 0,0 l/m 0 min 0 min 226 W/m 4,5 km/h (1 Bft) 97,87 %
28.07.2018 09:44 22,2 C 22,8 C 21,7 C 85 % 1005,2 hPa 0,0 l/m 0 min 0 min 238 W/m 2,3 km/h (1 Bft) 97,87 %
28.07.2018 09:46 22,2 C 22,8 C 21,7 C 85 % 1005,2 hPa 0,0 l/m 0 min 0 min 253 W/m 4,5 km/h (1 Bft) 93,48 %
28.07.2018 09:48 22,2 C 23,3 C 21,7 C 85 % 1005,1 hPa 0,0 l/m 0 min 0 min 265 W/m 4,5 km/h (1 Bft) 93,62 %
28.07.2018 09:50 22,3 C 23,3 C 21,7 C 85 % 1005,0 hPa 0,0 l/m 0 min 0 min 271 W/m 4,5 km/h (1 Bft) 97,87 %
28.07.2018 09:52 22,3 C 23,3 C 21,7 C 85 % 1005,0 hPa 0,0 l/m 0 min 0 min 276 W/m 2,3 km/h (1 Bft) 97,87 %
28.07.2018 09:54 22,3 C 23,9 C 21,7 C 85 % 1005,0 hPa 0,0 l/m 2 min 0 min 285 W/m 2,3 km/h (1 Bft) 95,74 %
28.07.2018 09:56 22,4 C 23,9 C 21,7 C 85 % 1005,1 hPa 0,0 l/m 2 min 0 min 289 W/m 2,3 km/h (1 Bft) 95,74 %
28.07.2018 09:58 22,4 C 23,9 C 21,7 C 85 % 1005,1 hPa 0,0 l/m 0 min 0 min 271 W/m 4,5 km/h (1 Bft) 95,74 %
28.07.2018 10:00 22,4 C 23,9 C 21,7 C 85 % 1005,1 hPa 0,0 l/m 0 min 0 min 271 W/m 4,5 km/h (1 Bft) 95,74 %
28.07.2018 10:02 22,5 C 23,9 C 22,2 C 84 % 1005,1 hPa 0,0 l/m 2 min 0 min 316 W/m 2,3 km/h (1 Bft) 95,65 %
28.07.2018 10:04 22,6 C 23,9 C 22,2 C 84 % 1005,2 hPa 0,0 l/m 2 min 0 min 306 W/m 4,5 km/h (1 Bft) 93,62 %
28.07.2018 10:06 22,6 C 23,9 C 21,7 C 83 % 1005,2 hPa 0,0 l/m 0 min 0 min 253 W/m 4,5 km/h (1 Bft) 95,74 %
28.07.2018 10:08 22,6 C 23,3 C 21,7 C 83 % 1005,1 hPa 0,0 l/m 0 min 0 min 240 W/m 2,3 km/h (1 Bft) 95,74 %
28.07.2018 10:10 22,7 C 23,9 C 22,2 C 83 % 1005,0 hPa 0,0 l/m 0 min 0 min 231 W/m 2,3 km/h (1 Bft) 95,74 %
28.07.2018 10:12 22,7 C 23,3 C 22,2 C 83 % 1005,1 hPa 0,0 l/m 0 min 0 min 219 W/m 4,5 km/h (1 Bft) 95,74 %
28.07.2018 10:14 22,8 C 23,3 C 22,2 C 83 % 1005,0 hPa 0,0 l/m 0 min 0 min 210 W/m 4,5 km/h (1 Bft) 93,48 %
28.07.2018 10:16 22,8 C 23,3 C 22,2 C 83 % 1005,0 hPa 0,0 l/m 0 min 0 min 203 W/m 4,5 km/h (1 Bft) 93,62 %
28.07.2018 10:18 22,8 C 23,3 C 21,7 C 83 % 1004,9 hPa 0,0 l/m 0 min 0 min 194 W/m 4,5 km/h (1 Bft) 95,74 %
28.07.2018 10:20 22,9 C 23,3 C 21,7 C 83 % 1005,1 hPa 0,0 l/m 0 min 0 min 186 W/m 6,8 km/h (2 Bft) 95,74 %
28.07.2018 10:22 22,9 C 22,8 C 21,7 C 82 % 1005,2 hPa 0,0 l/m 0 min 0 min 183 W/m 4,5 km/h (1 Bft) 93,62 %
28.07.2018 10:24 22,9 C 23,3 C 21,7 C 82 % 1005,2 hPa 0,0 l/m 0 min 0 min 190 W/m 2,3 km/h (1 Bft) 95,65 %
28.07.2018 10:26 22,9 C 23,3 C 22,2 C 82 % 1005,2 hPa 0,0 l/m 0 min 0 min 204 W/m 6,8 km/h (2 Bft) 97,87 %
28.07.2018 10:28 22,9 C 23,3 C 22,2 C 82 % 1005,3 hPa 0,0 l/m 0 min 0 min 223 W/m 4,5 km/h (1 Bft) 97,87 %
28.07.2018 10:30 22,9 C 23,3 C 22,2 C 82 % 1005,4 hPa 0,0 l/m 0 min 0 min 237 W/m 4,5 km/h (1 Bft) 97,87 %
28.07.2018 10:32 22,9 C 23,3 C 22,2 C 82 % 1005,5 hPa 0,0 l/m 0 min 0 min 241 W/m 4,5 km/h (1 Bft) 95,74 %
28.07.2018 10:34 23,0 C 23,3 C 22,2 C 82 % 1005,6 hPa 0,0 l/m 0 min 0 min 243 W/m 4,5 km/h (1 Bft) 95,74 %
28.07.2018 10:36 23,0 C 23,9 C 22,2 C 82 % 1005,6 hPa 0,0 l/m 0 min 0 min 246 W/m 2,3 km/h (1 Bft) 97,83 %
28.07.2018 10:38 23,0 C 23,3 C 22,2 C 82 % 1005,6 hPa 0,0 l/m 0 min 0 min 246 W/m 6,8 km/h (2 Bft) 97,87 %
28.07.2018 10:40 23,1 C 23,3 C 22,2 C 81 % 1005,7 hPa 0,0 l/m 0 min 0 min 249 W/m 4,5 km/h (1 Bft) 97,87 %
28.07.2018 10:42 23,1 C 23,9 C 22,2 C 81 % 1005,7 hPa 0,0 l/m 0 min 0 min 256 W/m 6,8 km/h (2 Bft) 97,87 %
28.07.2018 10:44 23,1 C 23,9 C 22,2 C 81 % 1005,8 hPa 0,0 l/m 0 min 0 min 265 W/m 6,8 km/h (2 Bft) 97,87 %
28.07.2018 10:46 23,1 C 23,9 C 22,8 C 80 % 1005,9 hPa 0,0 l/m 0 min 0 min 269 W/m 6,8 km/h (2 Bft) 95,74 %
28.07.2018 10:48 23,1 C 23,9 C 22,8 C 80 % 1005,8 hPa 0,0 l/m 0 min 0 min 277 W/m 4,5 km/h (1 Bft) 97,83 %
28.07.2018 10:50 23,2 C 24,4 C 22,8 C 80 % 1005,9 hPa 0,0 l/m 0 min 0 min 300 W/m 6,8 km/h (2 Bft) 97,87 %
28.07.2018 10:52 23,2 C 24,4 C 22,8 C 80 % 1005,9 hPa 0,0 l/m 0 min 0 min 314 W/m 6,8 km/h (2 Bft) 100,00 %
28.07.2018 10:54 23,3 C 24,4 C 22,8 C 80 % 1005,8 hPa 0,0 l/m 0 min 0 min 305 W/m 4,5 km/h (1 Bft) 97,87 %
28.07.2018 10:56 23,3 C 25,0 C 22,8 C 80 % 1005,8 hPa 0,0 l/m 0 min 0 min 303 W/m 6,8 km/h (2 Bft) 95,74 %
28.07.2018 10:58 23,3 C 25,0 C 22,8 C 80 % 1005,9 hPa 0,0 l/m 0 min 0 min 293 W/m 4,5 km/h (1 Bft) 97,87 %
28.07.2018 11:00 23,4 C 25,0 C 22,8 C 79 % 1005,9 hPa 0,0 l/m 0 min 0 min 292 W/m 6,8 km/h (2 Bft) 97,83 %
28.07.2018 11:02 23,4 C 25,0 C 22,8 C 79 % 1005,9 hPa 0,0 l/m 0 min 0 min 294 W/m 6,8 km/h (2 Bft) 100,00 %
28.07.2018 11:04 23,4 C 25,0 C 22,8 C 79 % 1006,0 hPa 0,0 l/m 0 min 0 min 264 W/m 4,5 km/h (1 Bft) 95,74 %
28.07.2018 11:06 23,6 C 25,0 C 22,8 C 79 % 1006,1 hPa 0,0 l/m 0 min 0 min 252 W/m 6,8 km/h (2 Bft) 100,00 %
28.07.2018 11:08 23,6 C 25,0 C 22,8 C 79 % 1006,1 hPa 0,0 l/m 0 min 0 min 261 W/m 4,5 km/h (1 Bft) 100,00 %
28.07.2018 11:10 23,7 C 25,0 C 22,8 C 79 % 1006,1 hPa 0,0 l/m 0 min 0 min 252 W/m 6,8 km/h (2 Bft) 97,87 %
28.07.2018 11:12 23,7 C 24,4 C 23,3 C 79 % 1006,1 hPa 0,0 l/m 0 min 0 min 232 W/m 6,8 km/h (2 Bft) 100,00 %
28.07.2018 11:14 23,8 C 24,4 C 23,3 C 78 % 1006,1 hPa 0,0 l/m 0 min 0 min 215 W/m 6,8 km/h (2 Bft) 100,00 %
28.07.2018 11:16 23,8 C 24,4 C 23,3 C 78 % 1006,1 hPa 0,0 l/m 0 min 0 min 220 W/m 6,8 km/h (2 Bft) 100,00 %
28.07.2018 11:18 23,8 C 24,4 C 23,3 C 78 % 1006,0 hPa 0,0 l/m 0 min 0 min 244 W/m 9,0 km/h (2 Bft) 97,87 %
28.07.2018 11:20 23,9 C 24,4 C 23,3 C 77 % 1006,0 hPa 0,0 l/m 0 min 0 min 263 W/m 4,5 km/h (1 Bft) 100,00 %
28.07.2018 11:22 23,9 C 24,4 C 23,3 C 77 % 1006,1 hPa 0,0 l/m 0 min 0 min 270 W/m 6,8 km/h (2 Bft) 100,00 %
28.07.2018 11:24 23,9 C 25,0 C 23,3 C 77 % 1006,1 hPa 0,0 l/m 0 min 0 min 278 W/m 9,0 km/h (2 Bft) 100,00 %
28.07.2018 11:26 24,0 C 25,0 C 23,3 C 77 % 1006,1 hPa 0,0 l/m 0 min 0 min 303 W/m 4,5 km/h (1 Bft) 100,00 %
28.07.2018 11:28 24,1 C 25,6 C 23,3 C 77 % 1006,1 hPa 0,0 l/m 2 min 0 min 366 W/m 6,8 km/h (2 Bft) 97,83 %
28.07.2018 11:30 24,1 C 26,1 C 23,3 C 77 % 1006,0 hPa 0,0 l/m 2 min 0 min 440 W/m 4,5 km/h (1 Bft) 97,87 %
28.07.2018 11:32 24,2 C 27,2 C 23,9 C 77 % 1005,9 hPa 0,0 l/m 2 min 0 min 537 W/m 6,8 km/h (2 Bft) 97,22 %
28.07.2018 11:34 24,3 C 28,3 C 23,9 C 77 % 1006,0 hPa 0,0 l/m 2 min 0 min 631 W/m 6,8 km/h (2 Bft) 97,87 %
28.07.2018 11:36 24,4 C 28,3 C 23,9 C 77 % 1005,9 hPa 0,0 l/m 2 min 0 min 631 W/m 4,5 km/h (1 Bft) 98,00 %
28.07.2018 11:38 24,5 C 27,8 C 23,9 C 77 % 1005,9 hPa 0,0 l/m 2 min 0 min 520 W/m 9,0 km/h (2 Bft) 95,74 %
28.07.2018 11:40 24,6 C 28,3 C 23,9 C 76 % 1005,8 hPa 0,0 l/m 2 min 0 min 473 W/m 4,5 km/h (1 Bft) 97,87 %
28.07.2018 11:42 24,7 C 28,3 C 23,9 C 77 % 1005,9 hPa 0,0 l/m 2 min 0 min 484 W/m 4,5 km/h (1 Bft) 97,87 %
28.07.2018 11:44 24,8 C 27,8 C 23,9 C 77 % 1005,9 hPa 0,0 l/m 2 min 0 min 446 W/m 4,5 km/h (1 Bft) 97,83 %
28.07.2018 11:46 24,8 C 27,2 C 23,9 C 75 % 1005,8 hPa 0,0 l/m 0 min 0 min 306 W/m 4,5 km/h (1 Bft) 97,87 %
28.07.2018 11:48 24,9 C 26,1 C 23,9 C 75 % 1005,9 hPa 0,0 l/m 0 min 0 min 262 W/m 4,5 km/h (1 Bft) 97,87 %
28.07.2018 11:50 24,9 C 26,1 C 23,9 C 73 % 1005,9 hPa 0,0 l/m 0 min 0 min 226 W/m 4,5 km/h (1 Bft) 97,87 %
28.07.2018 11:52 24,9 C 25,6 C 23,9 C 72 % 1006,0 hPa 0,0 l/m 0 min 0 min 203 W/m 4,5 km/h (1 Bft) 97,92 %
28.07.2018 11:54 25,0 C 25,6 C 23,9 C 71 % 1006,0 hPa 0,0 l/m 0 min 0 min 195 W/m 4,5 km/h (1 Bft) 97,83 %
28.07.2018 11:56 25,1 C 25,6 C 23,9 C 72 % 1006,0 hPa 0,0 l/m 0 min 0 min 197 W/m 4,5 km/h (1 Bft) 95,74 %
28.07.2018 11:58 25,1 C 25,0 C 23,9 C 72 % 1005,8 hPa 0,0 l/m 0 min 2 min 201 W/m 4,5 km/h (1 Bft) 97,87 %
28.07.2018 12:00 25,1 C 25,0 C 23,9 C 72 % 1005,9 hPa 0,0 l/m 0 min 0 min 211 W/m 4,5 km/h (1 Bft) 97,87 %
28.07.2018 12:02 25,1 C 25,0 C 23,9 C 72 % 1005,9 hPa 0,0 l/m 0 min 0 min 220 W/m 2,3 km/h (1 Bft) 97,87 %
28.07.2018 12:04 25,1 C 25,0 C 23,9 C 72 % 1005,9 hPa 0,0 l/m 0 min 0 min 221 W/m 6,8 km/h (2 Bft) 97,87 %
28.07.2018 12:08 25,1 C 25,0 C 23,9 C 72 % 1006,0 hPa 0,0 l/m 0 min 0 min 217 W/m 4,5 km/h (1 Bft) 96,81 %
28.07.2018 12:10 25,1 C 25,0 C 23,3 C 72 % 1005,9 hPa 0,0 l/m 0 min 0 min 227 W/m 4,5 km/h (1 Bft) 97,83 %
28.07.2018 12:12 25,1 C 25,6 C 23,3 C 72 % 1006,0 hPa 0,0 l/m 0 min 0 min 256 W/m 2,3 km/h (1 Bft) 95,74 %
28.07.2018 12:14 25,1 C 26,1 C 23,9 C 72 % 1006,0 hPa 0,0 l/m 0 min 0 min 308 W/m 9,0 km/h (2 Bft) 100,00 %
28.07.2018 12:16 25,1 C 26,1 C 23,9 C 73 % 1006,1 hPa 0,0 l/m 0 min 2 min 355 W/m 4,5 km/h (1 Bft) 100,00 %
28.07.2018 12:18 25,2 C 25,0 C 23,3 C 74 % 1006,1 hPa 0,0 l/m 0 min 2 min 345 W/m 4,5 km/h (1 Bft) 100,00 %
28.07.2018 12:20 25,2 C 24,4 C 22,8 C 75 % 1006,2 hPa 0,0 l/m 0 min 2 min 341 W/m 2,3 km/h (1 Bft) 95,74 %
28.07.2018 12:22 25,2 C 25,0 C 22,8 C 77 % 1006,1 hPa 0,0 l/m 0 min 2 min 353 W/m 4,5 km/h (1 Bft) 97,83 %
28.07.2018 12:24 25,3 C 25,6 C 23,3 C 77 % 1006,1 hPa 0,0 l/m 2 min 0 min 394 W/m 4,5 km/h (1 Bft) 100,00 %
28.07.2018 12:26 25,3 C 26,1 C 23,3 C 78 % 1006,1 hPa 0,0 l/m 0 min 0 min 392 W/m 4,5 km/h (1 Bft) 100,00 %
28.07.2018 12:28 25,3 C 26,1 C 23,9 C 76 % 1006,1 hPa 0,0 l/m 0 min 0 min 375 W/m 4,5 km/h (1 Bft) 100,00 %
28.07.2018 12:30 25,3 C 26,7 C 23,9 C 76 % 1006,1 hPa 0,0 l/m 0 min 0 min 367 W/m 2,3 km/h (1 Bft) 100,00 %
28.07.2018 12:32 25,3 C 27,2 C 23,9 C 76 % 1006,0 hPa 0,0 l/m 2 min 0 min 427 W/m 9,0 km/h (2 Bft) 100,00 %
28.07.2018 12:34 25,3 C 27,8 C 23,3 C 74 % 1006,0 hPa 0,0 l/m 2 min 0 min 406 W/m 6,8 km/h (2 Bft) 97,83 %
28.07.2018 12:36 25,4 C 28,3 C 23,9 C 74 % 1006,0 hPa 0,0 l/m 0 min 0 min 397 W/m 4,5 km/h (1 Bft) 100,00 %
28.07.2018 12:38 25,4 C 28,3 C 23,9 C 75 % 1006,0 hPa 0,0 l/m 0 min 0 min 392 W/m 4,5 km/h (1 Bft) 97,87 %
28.07.2018 12:40 25,4 C 29,4 C 24,4 C 74 % 1006,0 hPa 0,0 l/m 2 min 0 min 409 W/m 4,5 km/h (1 Bft) 95,74 %
28.07.2018 12:42 25,5 C 29,4 C 24,4 C 73 % 1006,0 hPa 0,0 l/m 2 min 0 min 484 W/m 6,8 km/h (2 Bft) 97,87 %
28.07.2018 12:44 25,6 C 30,6 C 24,4 C 73 % 1006,0 hPa 0,0 l/m 2 min 0 min 532 W/m 6,8 km/h (2 Bft) 97,87 %
28.07.2018 12:46 25,7 C 31,7 C 24,4 C 74 % 1006,0 hPa 0,0 l/m 2 min 0 min 529 W/m 6,8 km/h (2 Bft) 97,83 %
28.07.2018 12:48 25,7 C 29,4 C 24,4 C 72 % 1006,0 hPa 0,0 l/m 2 min 0 min 427 W/m 4,5 km/h (1 Bft) 95,74 %
28.07.2018 12:50 25,8 C 28,3 C 24,4 C 71 % 1006,1 hPa 0,0 l/m 0 min 0 min 290 W/m 2,3 km/h (1 Bft) 95,74 %
28.07.2018 12:52 25,9 C 28,3 C 24,4 C 71 % 1006,0 hPa 0,0 l/m 0 min 0 min 316 W/m 2,3 km/h (1 Bft) 93,62 %
28.07.2018 12:54 25,9 C 28,3 C 24,4 C 71 % 1006,0 hPa 0,0 l/m 0 min 0 min 285 W/m 4,5 km/h (1 Bft) 95,74 %
28.07.2018 12:56 26,0 C 27,8 C 24,4 C 70 % 1006,1 hPa 0,0 l/m 0 min 0 min 332 W/m 4,5 km/h (1 Bft) 97,87 %
28.07.2018 12:58 26,1 C 28,9 C 25,0 C 70 % 1006,1 hPa 0,0 l/m 0 min 0 min 378 W/m 6,8 km/h (2 Bft) 97,83 %
28.07.2018 13:00 26,1 C 28,9 C 25,0 C 70 % 1006,0 hPa 0,0 l/m 2 min 0 min 437 W/m 6,8 km/h (2 Bft) 93,62 %
28.07.2018 13:02 26,2 C 28,9 C 25,0 C 69 % 1006,1 hPa 0,0 l/m 0 min 0 min 389 W/m 4,5 km/h (1 Bft) 95,74 %
28.07.2018 13:04 26,3 C 28,3 C 25,0 C 69 % 1006,1 hPa 0,0 l/m 0 min 0 min 355 W/m 6,8 km/h (2 Bft) 97,87 %
28.07.2018 13:06 26,3 C 28,3 C 25,0 C 69 % 1006,1 hPa 0,0 l/m 0 min 0 min 319 W/m 9,0 km/h (2 Bft) 98,11 %
28.07.2018 13:08 26,4 C 27,8 C 25,0 C 68 % 1006,1 hPa 0,0 l/m 0 min 0 min 312 W/m 6,8 km/h (2 Bft) 95,74 %
28.07.2018 13:10 26,4 C 27,2 C 25,0 C 68 % 1006,1 hPa 0,0 l/m 0 min 0 min 289 W/m 6,8 km/h (2 Bft) 95,74 %
28.07.2018 13:12 26,4 C 28,3 C 25,0 C 67 % 1006,0 hPa 0,0 l/m 0 min 0 min 311 W/m 4,5 km/h (1 Bft) 95,74 %
28.07.2018 13:14 26,4 C 30,6 C 25,6 C 67 % 1006,0 hPa 0,0 l/m 0 min 0 min 311 W/m 4,5 km/h (1 Bft) 95,65 %
28.07.2018 13:16 26,6 C 32,2 C 25,6 C 67 % 1005,9 hPa 0,0 l/m 2 min 0 min 915 W/m 9,0 km/h (2 Bft) 95,74 %
28.07.2018 13:18 26,7 C 32,2 C 26,1 C 68 % 1005,9 hPa 0,0 l/m 2 min 0 min 1039 W/m 13,5 km/h (3 Bft) 95,74 %
28.07.2018 13:20 26,8 C 30,0 C 25,6 C 66 % 1005,8 hPa 0,0 l/m 2 min 0 min 501 W/m 13,5 km/h (3 Bft) 95,74 %
28.07.2018 13:22 26,9 C 30,6 C 26,1 C 67 % 1005,8 hPa 0,0 l/m 2 min 0 min 562 W/m 6,8 km/h (2 Bft) 95,74 %
28.07.2018 13:24 26,9 C 30,0 C 26,1 C 66 % 1005,7 hPa 0,0 l/m 2 min 0 min 798 W/m 6,8 km/h (2 Bft) 95,74 %
28.07.2018 13:26 27,1 C 30,6 C 26,1 C 66 % 1005,8 hPa 0,0 l/m 2 min 0 min 448 W/m 11,3 km/h (2 Bft) 95,65 %
28.07.2018 13:28 27,1 C 30,0 C 26,1 C 66 % 1005,7 hPa 0,0 l/m 0 min 0 min 334 W/m 6,8 km/h (2 Bft) 93,62 %
28.07.2018 13:30 27,2 C 29,4 C 26,1 C 65 % 1005,8 hPa 0,0 l/m 0 min 0 min 338 W/m 6,8 km/h (2 Bft) 95,74 %
28.07.2018 13:32 27,2 C 28,9 C 25,6 C 65 % 1005,9 hPa 0,0 l/m 0 min 0 min 272 W/m 6,8 km/h (2 Bft) 94,59 %
28.07.2018 13:34 27,3 C 28,9 C 25,6 C 65 % 1005,9 hPa 0,0 l/m 0 min 0 min 313 W/m 6,8 km/h (2 Bft) 97,87 %
28.07.2018 13:36 27,3 C 28,3 C 25,6 C 64 % 1005,9 hPa 0,0 l/m 0 min 0 min 310 W/m 6,8 km/h (2 Bft) 98,00 %
28.07.2018 13:38 27,3 C 27,8 C 25,6 C 65 % 1005,8 hPa 0,0 l/m 0 min 0 min 257 W/m 4,5 km/h (1 Bft) 97,87 %
28.07.2018 13:40 27,3 C 27,8 C 25,6 C 64 % 1005,8 hPa 0,0 l/m 0 min 0 min 247 W/m 11,3 km/h (2 Bft) 95,74 %
28.07.2018 13:42 27,3 C 27,8 C 25,6 C 64 % 1005,8 hPa 0,0 l/m 0 min 0 min 295 W/m 9,0 km/h (2 Bft) 97,87 %
28.07.2018 13:44 27,3 C 27,8 C 25,0 C 65 % 1005,7 hPa 0,0 l/m 0 min 0 min 298 W/m 6,8 km/h (2 Bft) 97,83 %
28.07.2018 13:46 27,3 C 28,3 C 25,6 C 66 % 1005,7 hPa 0,0 l/m 2 min 0 min 423 W/m 4,5 km/h (1 Bft) 93,62 %
28.07.2018 13:48 27,3 C 28,3 C 25,6 C 67 % 1005,8 hPa 0,0 l/m 2 min 0 min 800 W/m 4,5 km/h (1 Bft) 97,87 %
28.07.2018 13:50 27,4 C 28,3 C 25,6 C 66 % 1005,7 hPa 0,0 l/m 2 min 0 min 514 W/m 4,5 km/h (1 Bft) 97,73 %
28.07.2018 13:52 27,4 C 28,9 C 26,1 C 65 % 1005,7 hPa 0,0 l/m 2 min 0 min 858 W/m 6,8 km/h (2 Bft) 97,96 %
28.07.2018 13:54 27,4 C 28,9 C 26,1 C 65 % 1005,7 hPa 0,0 l/m 2 min 0 min 888 W/m 4,5 km/h (1 Bft) 97,92 %
28.07.2018 13:56 27,5 C 29,4 C 26,1 C 65 % 1005,6 hPa 0,0 l/m 2 min 0 min 913 W/m 11,3 km/h (2 Bft) 97,83 %
28.07.2018 13:58 27,6 C 28,9 C 26,1 C 65 % 1005,7 hPa 0,0 l/m 2 min 0 min 881 W/m 9,0 km/h (2 Bft) 95,74 %
28.07.2018 14:00 27,7 C 28,9 C 26,1 C 66 % 1005,7 hPa 0,0 l/m 0 min 0 min 314 W/m 6,8 km/h (2 Bft) 95,74 %
28.07.2018 14:02 27,7 C 28,3 C 26,1 C 64 % 1005,7 hPa 0,0 l/m 0 min 0 min 357 W/m 6,8 km/h (2 Bft) 96,23 %
28.07.2018 14:04 27,7 C 28,3 C 26,1 C 64 % 1005,8 hPa 0,0 l/m 2 min 0 min 424 W/m 2,3 km/h (1 Bft) 94,74 %
28.07.2018 14:06 27,7 C 28,3 C 26,1 C 65 % 1005,8 hPa 0,0 l/m 0 min 0 min 402 W/m 4,5 km/h (1 Bft) 96,00 %
28.07.2018 14:08 27,7 C 27,8 C 26,1 C 62 % 1005,9 hPa 0,0 l/m 0 min 0 min 239 W/m 4,5 km/h (1 Bft) 95,65 %
28.07.2018 14:10 27,7 C 27,8 C 26,1 C 62 % 1005,9 hPa 0,0 l/m 0 min 0 min 265 W/m 6,8 km/h (2 Bft) 97,87 %
28.07.2018 14:12 27,7 C 27,8 C 25,6 C 62 % 1005,8 hPa 0,0 l/m 0 min 0 min 265 W/m 6,8 km/h (2 Bft) 97,87 %
28.07.2018 14:14 27,7 C 27,8 C 25,6 C 63 % 1005,8 hPa 0,0 l/m 0 min 0 min 303 W/m 11,3 km/h (2 Bft) 95,74 %
28.07.2018 14:16 27,7 C 28,3 C 26,1 C 63 % 1005,8 hPa 0,0 l/m 2 min 0 min 465 W/m 6,8 km/h (2 Bft) 97,62 %
28.07.2018 14:18 27,7 C 28,9 C 26,1 C 64 % 1005,8 hPa 0,0 l/m 2 min 0 min 877 W/m 4,5 km/h (1 Bft) 97,92 %
28.07.2018 14:20 27,8 C 29,4 C 26,7 C 63 % 1005,8 hPa 0,0 l/m 2 min 0 min 967 W/m 6,8 km/h (2 Bft) 95,74 %
28.07.2018 14:22 27,8 C 29,4 C 26,7 C 63 % 1005,9 hPa 0,0 l/m 2 min 0 min 822 W/m 11,3 km/h (2 Bft) 97,87 %
28.07.2018 14:24 27,9 C 28,9 C 26,7 C 63 % 1005,9 hPa 0,0 l/m 0 min 0 min 192 W/m 11,3 km/h (2 Bft) 97,87 %
28.07.2018 14:26 27,9 C 28,3 C 26,1 C 63 % 1005,9 hPa 0,0 l/m 0 min 0 min 202 W/m 11,3 km/h (2 Bft) 97,96 %
28.07.2018 14:28 27,9 C 28,3 C 26,1 C 63 % 1005,9 hPa 0,0 l/m 0 min 0 min 262 W/m 6,8 km/h (2 Bft) 95,83 %
28.07.2018 14:30 27,9 C 28,9 C 26,7 C 63 % 1005,9 hPa 0,0 l/m 2 min 0 min 491 W/m 11,3 km/h (2 Bft) 97,87 %
28.07.2018 14:32 28,0 C 29,4 C 26,7 C 62 % 1005,9 hPa 0,0 l/m 2 min 0 min 993 W/m 9,0 km/h (2 Bft) 95,65 %
28.07.2018 14:34 28,1 C 29,4 C 27,2 C 61 % 1005,9 hPa 0,0 l/m 2 min 0 min 891 W/m 9,0 km/h (2 Bft) 97,87 %
28.07.2018 14:36 28,1 C 29,4 C 27,2 C 60 % 1005,9 hPa 0,0 l/m 2 min 0 min 666 W/m 15,8 km/h (3 Bft) 96,23 %
28.07.2018 14:38 28,2 C 28,9 C 27,2 C 59 % 1005,9 hPa 0,0 l/m 0 min 0 min 307 W/m 11,3 km/h (2 Bft) 97,37 %
28.07.2018 14:40 28,3 C 28,9 C 27,2 C 59 % 1005,9 hPa 0,0 l/m 2 min 0 min 960 W/m 4,5 km/h (1 Bft) 97,87 %
28.07.2018 14:42 28,3 C 28,9 C 27,2 C 60 % 1005,9 hPa 0,0 l/m 2 min 0 min 528 W/m 6,8 km/h (2 Bft) 97,87 %
28.07.2018 14:44 28,4 C 29,4 C 27,2 C 60 % 1006,0 hPa 0,0 l/m 0 min 0 min 367 W/m 15,8 km/h (3 Bft) 97,87 %
28.07.2018 14:46 28,4 C 29,4 C 27,2 C 60 % 1006,0 hPa 0,0 l/m 0 min 0 min 367 W/m 9,0 km/h (2 Bft) 100,00 %
28.07.2018 14:48 28,5 C 28,9 C 26,7 C 60 % 1006,0 hPa 0,0 l/m 0 min 0 min 282 W/m 9,0 km/h (2 Bft) 97,87 %
28.07.2018 14:50 28,5 C 28,9 C 26,7 C 60 % 1006,0 hPa 0,0 l/m 0 min 0 min 217 W/m 9,0 km/h (2 Bft) 100,00 %
28.07.2018 14:52 28,4 C 28,3 C 26,7 C 59 % 1006,0 hPa 0,0 l/m 0 min 0 min 299 W/m 4,5 km/h (1 Bft) 97,92 %
28.07.2018 14:54 28,4 C 28,3 C 26,7 C 60 % 1006,0 hPa 0,0 l/m 0 min 0 min 349 W/m 6,8 km/h (2 Bft) 100,00 %
28.07.2018 14:56 28,4 C 28,9 C 26,7 C 60 % 1006,0 hPa 0,0 l/m 0 min 0 min 380 W/m 6,8 km/h (2 Bft) 100,00 %
28.07.2018 14:58 28,4 C 29,4 C 26,7 C 60 % 1006,0 hPa 0,0 l/m 2 min 0 min 627 W/m 4,5 km/h (1 Bft) 100,00 %
28.07.2018 15:00 28,5 C 29,4 C 26,7 C 61 % 1006,1 hPa 0,0 l/m 2 min 0 min 606 W/m 6,8 km/h (2 Bft) 100,00 %
28.07.2018 15:02 28,5 C 28,9 C 26,7 C 61 % 1006,0 hPa 0,0 l/m 0 min 0 min 390 W/m 6,8 km/h (2 Bft) 100,00 %
28.07.2018 15:04 28,5 C 28,3 C 26,7 C 60 % 1006,0 hPa 0,0 l/m 0 min 0 min 374 W/m 9,0 km/h (2 Bft) 100,00 %
28.07.2018 15:06 28,5 C 28,9 C 26,7 C 61 % 1006,0 hPa 0,0 l/m 0 min 0 min 359 W/m 6,8 km/h (2 Bft) 100,00 %
28.07.2018 15:08 28,5 C 28,9 C 26,7 C 61 % 1006,0 hPa 0,0 l/m 2 min 0 min 742 W/m 6,8 km/h (2 Bft) 100,00 %
28.07.2018 15:10 28,5 C 29,4 C 26,7 C 62 % 1005,9 hPa 0,0 l/m 2 min 0 min 674 W/m 11,3 km/h (2 Bft) 100,00 %
28.07.2018 15:12 28,5 C 29,4 C 27,2 C 61 % 1006,0 hPa 0,0 l/m 2 min 0 min 820 W/m 6,8 km/h (2 Bft) 100,00 %
28.07.2018 15:14 28,6 C 29,4 C 27,2 C 61 % 1006,0 hPa 0,0 l/m 2 min 0 min 872 W/m 6,8 km/h (2 Bft) 100,00 %
28.07.2018 15:16 28,6 C 30,0 C 27,2 C 60 % 1006,0 hPa 0,0 l/m 2 min 0 min 934 W/m 15,8 km/h (3 Bft) 100,00 %
28.07.2018 15:18 28,7 C 30,0 C 27,2 C 59 % 1006,1 hPa 0,0 l/m 2 min 0 min 876 W/m 6,8 km/h (2 Bft) 100,00 %
28.07.2018 15:20 28,7 C 29,4 C 27,2 C 59 % 1006,1 hPa 0,0 l/m 0 min 0 min 288 W/m 11,3 km/h (2 Bft) 100,00 %
28.07.2018 15:22 28,8 C 28,9 C 27,2 C 59 % 1006,0 hPa 0,0 l/m 0 min 0 min 289 W/m 6,8 km/h (2 Bft) 100,00 %
28.07.2018 15:24 28,8 C 28,9 C 27,2 C 59 % 1006,0 hPa 0,0 l/m 0 min 0 min 366 W/m 4,5 km/h (1 Bft) 100,00 %
28.07.2018 15:26 28,8 C 29,4 C 27,2 C 59 % 1006,1 hPa 0,0 l/m 2 min 0 min 429 W/m 9,0 km/h (2 Bft) 97,87 %
28.07.2018 15:28 28,8 C 29,4 C 27,2 C 58 % 1006,1 hPa 0,0 l/m 2 min 0 min 526 W/m 6,8 km/h (2 Bft) 100,00 %
28.07.2018 15:30 28,8 C 29,4 C 27,2 C 57 % 1006,1 hPa 0,0 l/m 2 min 0 min 456 W/m 9,0 km/h (2 Bft) 100,00 %
28.07.2018 15:32 28,8 C 29,4 C 27,2 C 57 % 1006,1 hPa 0,0 l/m 2 min 0 min 488 W/m 9,0 km/h (2 Bft) 97,96 %
28.07.2018 15:34 28,8 C 29,4 C 27,2 C 57 % 1006,1 hPa 0,0 l/m 2 min 0 min 543 W/m 18,0 km/h (3 Bft) 100,00 %
28.07.2018 15:36 28,9 C 30,0 C 27,8 C 57 % 1006,1 hPa 0,0 l/m 2 min 0 min 724 W/m 9,0 km/h (2 Bft) 100,00 %
28.07.2018 15:38 28,9 C 30,0 C 27,8 C 57 % 1006,0 hPa 0,0 l/m 2 min 0 min 958 W/m 11,3 km/h (2 Bft) 100,00 %
28.07.2018 15:40 29,0 C 30,0 C 27,8 C 57 % 1006,0 hPa 0,0 l/m 2 min 0 min 946 W/m 6,8 km/h (2 Bft) 97,87 %
28.07.2018 15:42 29,1 C 29,4 C 27,8 C 57 % 1006,0 hPa 0,0 l/m 2 min 0 min 680 W/m 11,3 km/h (2 Bft) 100,00 %
28.07.2018 15:44 29,1 C 30,0 C 27,8 C 57 % 1006,0 hPa 0,0 l/m 0 min 0 min 359 W/m 6,8 km/h (2 Bft) 100,00 %
28.07.2018 15:46 29,1 C 30,0 C 27,8 C 56 % 1006,0 hPa 0,0 l/m 2 min 0 min 477 W/m 13,5 km/h (3 Bft) 100,00 %
28.07.2018 15:48 29,2 C 30,0 C 27,8 C 55 % 1005,8 hPa 0,0 l/m 2 min 0 min 856 W/m 13,5 km/h (3 Bft) 100,00 %
28.07.2018 15:50 29,2 C 29,4 C 27,8 C 55 % 1005,9 hPa 0,0 l/m 2 min 0 min 778 W/m 15,8 km/h (3 Bft) 97,92 %
28.07.2018 15:52 29,2 C 28,9 C 27,8 C 53 % 1006,0 hPa 0,0 l/m 0 min 0 min 251 W/m 15,8 km/h (3 Bft) 97,87 %
28.07.2018 15:54 29,2 C 28,9 C 27,2 C 53 % 1006,0 hPa 0,0 l/m 0 min 0 min 237 W/m 9,0 km/h (2 Bft) 95,65 %
28.07.2018 15:56 29,2 C 28,9 C 27,2 C 54 % 1005,9 hPa 0,0 l/m 0 min 0 min 270 W/m 9,0 km/h (2 Bft) 97,87 %
28.07.2018 15:58 29,1 C 28,9 C 27,2 C 54 % 1006,0 hPa 0,0 l/m 0 min 0 min 329 W/m 9,0 km/h (2 Bft) 97,87 %
28.07.2018 16:00 29,1 C 28,9 C 27,2 C 54 % 1006,0 hPa 0,0 l/m 2 min 0 min 371 W/m 18,0 km/h (3 Bft) 97,87 %
28.07.2018 16:02 29,1 C 28,9 C 27,2 C 54 % 1006,0 hPa 0,0 l/m 2 min 0 min 381 W/m 9,0 km/h (2 Bft) 98,11 %
28.07.2018 16:04 29,1 C 29,4 C 27,2 C 54 % 1006,0 hPa 0,0 l/m 0 min 0 min 305 W/m 13,5 km/h (3 Bft) 97,37 %
28.07.2018 16:06 29,1 C 31,1 C 27,8 C 54 % 1006,0 hPa 0,0 l/m 2 min 0 min 579 W/m 15,8 km/h (3 Bft) 97,96 %
28.07.2018 16:08 29,1 C 31,7 C 27,8 C 54 % 1005,9 hPa 0,0 l/m 2 min 0 min 889 W/m 11,3 km/h (2 Bft) 95,74 %
28.07.2018 16:10 29,2 C 32,8 C 27,8 C 55 % 1005,9 hPa 0,0 l/m 2 min 0 min 857 W/m 11,3 km/h (2 Bft) 97,87 %
28.07.2018 16:12 29,3 C 32,8 C 27,8 C 56 % 1006,0 hPa 0,0 l/m 2 min 0 min 801 W/m 9,0 km/h (2 Bft) 97,87 %
28.07.2018 16:14 29,3 C 32,8 C 27,8 C 57 % 1006,0 hPa 0,0 l/m 2 min 0 min 809 W/m 15,8 km/h (3 Bft) 95,24 %
28.07.2018 16:16 29,4 C 32,2 C 27,8 C 56 % 1006,0 hPa 0,0 l/m 2 min 0 min 814 W/m 15,8 km/h (3 Bft) 95,74 %
28.07.2018 16:18 29,4 C 30,6 C 27,8 C 56 % 1005,8 hPa 0,0 l/m 2 min 0 min 810 W/m 11,3 km/h (2 Bft) 97,92 %
28.07.2018 16:20 29,4 C 31,1 C 27,8 C 56 % 1006,0 hPa 0,0 l/m 2 min 0 min 811 W/m 15,8 km/h (3 Bft) 95,74 %
28.07.2018 16:22 29,4 C 30,6 C 27,8 C 56 % 1005,9 hPa 0,0 l/m 2 min 0 min 819 W/m 11,3 km/h (2 Bft) 97,87 %
28.07.2018 16:24 29,4 C 30,6 C 27,8 C 57 % 1006,1 hPa 0,0 l/m 2 min 0 min 445 W/m 15,8 km/h (3 Bft) 95,65 %
28.07.2018 16:26 29,4 C 30,0 C 27,2 C 56 % 1006,0 hPa 0,0 l/m 0 min 0 min 336 W/m 11,3 km/h (2 Bft) 93,62 %
28.07.2018 16:28 29,3 C 30,6 C 27,2 C 56 % 1006,0 hPa 0,0 l/m 2 min 0 min 494 W/m 9,0 km/h (2 Bft) 98,00 %
28.07.2018 16:30 29,3 C 31,1 C 27,2 C 56 % 1006,0 hPa 0,0 l/m 2 min 0 min 809 W/m 15,8 km/h (3 Bft) 97,87 %
28.07.2018 16:32 29,3 C 30,6 C 27,2 C 57 % 1006,0 hPa 0,0 l/m 2 min 0 min 721 W/m 11,3 km/h (2 Bft) 93,62 %
28.07.2018 16:34 29,2 C 30,0 C 27,2 C 57 % 1005,9 hPa 0,0 l/m 2 min 0 min 631 W/m 24,8 km/h (4 Bft) 93,62 %
28.07.2018 16:36 29,2 C 30,0 C 27,2 C 57 % 1006,0 hPa 0,0 l/m 2 min 0 min 646 W/m 11,3 km/h (2 Bft) 92,45 %
28.07.2018 16:38 29,1 C 29,4 C 26,7 C 58 % 1006,0 hPa 0,0 l/m 2 min 0 min 460 W/m 9,0 km/h (2 Bft) 93,62 %
28.07.2018 16:40 29,1 C 28,9 C 26,7 C 58 % 1006,0 hPa 0,0 l/m 2 min 0 min 327 W/m 11,3 km/h (2 Bft) 92,11 %
28.07.2018 16:42 29,0 C 28,9 C 26,7 C 57 % 1006,0 hPa 0,0 l/m 2 min 0 min 348 W/m 11,3 km/h (2 Bft) 93,62 %
28.07.2018 16:44 28,9 C 29,4 C 26,7 C 58 % 1006,0 hPa 0,0 l/m 2 min 0 min 395 W/m 13,5 km/h (3 Bft) 93,62 %
28.07.2018 16:46 28,9 C 29,4 C 27,2 C 57 % 1006,2 hPa 0,0 l/m 2 min 0 min 605 W/m 9,0 km/h (2 Bft) 93,88 %
28.07.2018 16:48 28,8 C 29,4 C 27,2 C 58 % 1006,1 hPa 0,0 l/m 2 min 0 min 547 W/m 11,3 km/h (2 Bft) 93,62 %
28.07.2018 16:50 28,8 C 30,0 C 27,2 C 58 % 1006,2 hPa 0,0 l/m 2 min 0 min 666 W/m 11,3 km/h (2 Bft) 91,49 %
28.07.2018 16:52 28,8 C 30,6 C 27,2 C 58 % 1006,2 hPa 0,0 l/m 2 min 0 min 715 W/m 9,0 km/h (2 Bft) 93,48 %
28.07.2018 16:54 28,8 C 30,6 C 27,8 C 58 % 1006,1 hPa 0,0 l/m 2 min 0 min 576 W/m 11,3 km/h (2 Bft) 95,74 %
28.07.2018 16:56 28,9 C 30,0 C 27,8 C 59 % 1006,2 hPa 0,0 l/m 2 min 0 min 526 W/m 11,3 km/h (2 Bft) 95,74 %
28.07.2018 16:58 28,9 C 28,9 C 27,2 C 57 % 1006,2 hPa 0,0 l/m 2 min 0 min 343 W/m 13,5 km/h (3 Bft) 93,62 %
28.07.2018 17:00 28,8 C 28,9 C 27,2 C 57 % 1006,2 hPa 0,0 l/m 0 min 0 min 248 W/m 6,8 km/h (2 Bft) 95,74 %
28.07.2018 17:02 28,8 C 28,3 C 27,2 C 56 % 1006,2 hPa 0,0 l/m 0 min 0 min 232 W/m 13,5 km/h (3 Bft) 94,34 %
28.07.2018 17:04 28,8 C 28,3 C 26,7 C 56 % 1006,3 hPa 0,0 l/m 2 min 0 min 357 W/m 13,5 km/h (3 Bft) 94,74 %
28.07.2018 17:06 28,7 C 28,9 C 26,7 C 57 % 1006,2 hPa 0,0 l/m 2 min 0 min 416 W/m 11,3 km/h (2 Bft) 95,92 %
28.07.2018 17:08 28,7 C 28,9 C 26,7 C 57 % 1006,2 hPa 0,0 l/m 2 min 0 min 460 W/m 13,5 km/h (3 Bft) 93,62 %
28.07.2018 17:10 28,7 C 28,9 C 26,7 C 57 % 1006,3 hPa 0,0 l/m 2 min 0 min 342 W/m 11,3 km/h (2 Bft) 93,62 %
28.07.2018 17:12 28,6 C 28,3 C 26,7 C 57 % 1006,4 hPa 0,0 l/m 0 min 0 min 273 W/m 9,0 km/h (2 Bft) 93,62 %
28.07.2018 17:14 28,6 C 28,3 C 26,7 C 55 % 1006,5 hPa 0,0 l/m 2 min 0 min 303 W/m 6,8 km/h (2 Bft) 96,23 %
28.07.2018 17:16 28,6 C 28,9 C 27,2 C 55 % 1006,4 hPa 0,0 l/m 2 min 0 min 414 W/m 11,3 km/h (2 Bft) 95,74 %
28.07.2018 17:18 28,6 C 28,9 C 27,2 C 56 % 1006,5 hPa 0,0 l/m 2 min 0 min 457 W/m 6,8 km/h (2 Bft) 97,37 %
28.07.2018 17:20 28,6 C 28,9 C 27,2 C 55 % 1006,7 hPa 0,0 l/m 2 min 0 min 457 W/m 11,3 km/h (2 Bft) 97,96 %
28.07.2018 17:22 28,6 C 28,9 C 27,2 C 55 % 1006,6 hPa 0,0 l/m 2 min 0 min 453 W/m 6,8 km/h (2 Bft) 97,87 %
28.07.2018 17:24 28,6 C 28,9 C 27,2 C 55 % 1006,6 hPa 0,0 l/m 0 min 0 min 264 W/m 6,8 km/h (2 Bft) 97,87 %
28.07.2018 17:26 28,6 C 28,3 C 27,2 C 55 % 1006,7 hPa 0,0 l/m 0 min 0 min 214 W/m 11,3 km/h (2 Bft) 94,34 %
28.07.2018 17:28 28,6 C 28,3 C 26,7 C 54 % 1006,7 hPa 0,0 l/m 0 min 0 min 226 W/m 13,5 km/h (3 Bft) 100,00 %
28.07.2018 17:30 28,5 C 28,3 C 26,7 C 54 % 1006,7 hPa 0,0 l/m 0 min 0 min 246 W/m 11,3 km/h (2 Bft) 100,00 %
28.07.2018 17:32 28,5 C 27,8 C 26,7 C 54 % 1006,8 hPa 0,0 l/m 0 min 0 min 193 W/m 6,8 km/h (2 Bft) 100,00 %
28.07.2018 17:34 28,4 C 27,8 C 26,7 C 55 % 1006,7 hPa 0,0 l/m 0 min 0 min 188 W/m 6,8 km/h (2 Bft) 97,83 %
28.07.2018 17:36 28,4 C 27,8 C 26,7 C 54 % 1006,8 hPa 0,0 l/m 0 min 0 min 234 W/m 13,5 km/h (3 Bft) 100,00 %
28.07.2018 17:38 28,4 C 27,8 C 26,7 C 55 % 1006,7 hPa 0,0 l/m 0 min 0 min 264 W/m 6,8 km/h (2 Bft) 100,00 %
28.07.2018 17:40 28,3 C 27,8 C 26,7 C 54 % 1006,8 hPa 0,0 l/m 2 min 0 min 268 W/m 6,8 km/h (2 Bft) 100,00 %
28.07.2018 17:42 28,3 C 27,8 C 26,7 C 54 % 1006,7 hPa 0,0 l/m 0 min 0 min 245 W/m 13,5 km/h (3 Bft) 100,00 %
28.07.2018 17:44 28,3 C 28,3 C 26,7 C 53 % 1006,7 hPa 0,0 l/m 0 min 0 min 243 W/m 6,8 km/h (2 Bft) 100,00 %
28.07.2018 17:46 28,3 C 28,3 C 26,7 C 53 % 1006,7 hPa 0,0 l/m 2 min 0 min 285 W/m 6,8 km/h (2 Bft) 100,00 %
28.07.2018 17:48 28,3 C 28,3 C 26,7 C 54 % 1006,7 hPa 0,0 l/m 2 min 0 min 301 W/m 6,8 km/h (2 Bft) 100,00 %
28.07.2018 17:50 28,3 C 28,9 C 27,2 C 54 % 1006,8 hPa 0,0 l/m 2 min 0 min 608 W/m 11,3 km/h (2 Bft) 100,00 %
28.07.2018 17:52 28,3 C 28,9 C 27,2 C 54 % 1006,8 hPa 0,0 l/m 2 min 0 min 714 W/m 11,3 km/h (2 Bft) 100,00 %
28.07.2018 17:54 28,4 C 28,3 C 27,2 C 53 % 1006,8 hPa 0,0 l/m 2 min 0 min 614 W/m 9,0 km/h (2 Bft) 97,87 %
28.07.2018 17:56 28,4 C 28,3 C 27,2 C 53 % 1006,8 hPa 0,0 l/m 2 min 0 min 285 W/m 11,3 km/h (2 Bft) 97,87 %
28.07.2018 17:58 28,4 C 28,3 C 27,2 C 53 % 1006,7 hPa 0,0 l/m 0 min 0 min 243 W/m 13,5 km/h (3 Bft) 100,00 %
28.07.2018 18:00 28,4 C 28,3 C 26,7 C 53 % 1006,7 hPa 0,0 l/m 2 min 0 min 319 W/m 11,3 km/h (2 Bft) 100,00 %
28.07.2018 18:02 28,4 C 28,3 C 27,2 C 54 % 1006,8 hPa 0,0 l/m 2 min 0 min 609 W/m 11,3 km/h (2 Bft) 100,00 %
28.07.2018 18:04 28,4 C 28,3 C 26,7 C 54 % 1006,8 hPa 0,0 l/m 0 min 0 min 239 W/m 13,5 km/h (3 Bft) 100,00 %
28.07.2018 18:08 28,3 C 27,8 C 26,7 C 54 % 1007,0 hPa 0,0 l/m 0 min 0 min 231 W/m 13,5 km/h (3 Bft) 98,95 %
28.07.2018 18:10 28,3 C 27,8 C 26,7 C 54 % 1007,0 hPa 0,0 l/m 2 min 0 min 242 W/m 9,0 km/h (2 Bft) 100,00 %
28.07.2018 18:12 28,2 C 27,8 C 26,7 C 54 % 1007,0 hPa 0,0 l/m 2 min 0 min 299 W/m 27,0 km/h (4 Bft) 100,00 %
28.07.2018 18:14 28,2 C 27,8 C 26,1 C 55 % 1006,9 hPa 0,0 l/m 0 min 0 min 136 W/m 11,3 km/h (2 Bft) 100,00 %
28.07.2018 18:16 28,2 C 27,8 C 26,1 C 54 % 1006,9 hPa 0,0 l/m 2 min 0 min 270 W/m 15,8 km/h (3 Bft) 100,00 %
28.07.2018 18:18 28,1 C 27,8 C 26,1 C 54 % 1006,9 hPa 0,0 l/m 2 min 0 min 332 W/m 15,8 km/h (3 Bft) 100,00 %
28.07.2018 18:20 28,1 C 27,2 C 26,1 C 55 % 1007,0 hPa 0,0 l/m 0 min 0 min 188 W/m 11,3 km/h (2 Bft) 100,00 %
28.07.2018 18:22 28,1 C 27,2 C 26,1 C 55 % 1007,1 hPa 0,0 l/m 0 min 0 min 145 W/m 13,5 km/h (3 Bft) 100,00 %
28.07.2018 18:24 27,9 C 26,7 C 26,1 C 55 % 1007,2 hPa 0,0 l/m 0 min 0 min 134 W/m 13,5 km/h (3 Bft) 100,00 %
28.07.2018 18:26 27,8 C 26,7 C 25,6 C 56 % 1007,2 hPa 0,0 l/m 0 min 0 min 129 W/m 11,3 km/h (2 Bft) 100,00 %
28.07.2018 18:28 27,8 C 26,7 C 25,6 C 56 % 1007,2 hPa 0,0 l/m 0 min 0 min 211 W/m 11,3 km/h (2 Bft) 100,00 %
28.07.2018 18:30 27,7 C 26,7 C 25,6 C 56 % 1007,3 hPa 0,0 l/m 2 min 0 min 238 W/m 11,3 km/h (2 Bft) 100,00 %
28.07.2018 18:32 27,6 C 26,1 C 25,6 C 56 % 1007,3 hPa 0,0 l/m 0 min 0 min 194 W/m 18,0 km/h (3 Bft) 100,00 %
28.07.2018 18:34 27,5 C 26,1 C 25,6 C 57 % 1007,5 hPa 0,0 l/m 0 min 0 min 156 W/m 13,5 km/h (3 Bft) 100,00 %
28.07.2018 18:36 27,4 C 26,1 C 25,6 C 57 % 1007,5 hPa 0,0 l/m 0 min 0 min 119 W/m 15,8 km/h (3 Bft) 97,87 %
28.07.2018 18:38 27,3 C 25,6 C 25,0 C 57 % 1007,5 hPa 0,0 l/m 0 min 0 min 97 W/m 11,3 km/h (2 Bft) 100,00 %
28.07.2018 18:40 27,1 C 25,6 C 25,0 C 57 % 1007,5 hPa 0,0 l/m 0 min 0 min 90 W/m 15,8 km/h (3 Bft) 100,00 %
28.07.2018 18:42 27,0 C 25,6 C 25,0 C 57 % 1007,6 hPa 0,0 l/m 0 min 0 min 89 W/m 9,0 km/h (2 Bft) 100,00 %
28.07.2018 18:44 26,9 C 25,6 C 25,0 C 58 % 1007,6 hPa 0,0 l/m 0 min 0 min 98 W/m 11,3 km/h (2 Bft) 100,00 %
28.07.2018 18:46 26,8 C 25,6 C 25,0 C 58 % 1007,6 hPa 0,0 l/m 0 min 0 min 82 W/m 6,8 km/h (2 Bft) 100,00 %
28.07.2018 18:48 26,7 C 25,6 C 25,0 C 58 % 1007,7 hPa 0,0 l/m 0 min 0 min 75 W/m 15,8 km/h (3 Bft) 100,00 %
28.07.2018 18:50 26,7 C 25,0 C 25,0 C 59 % 1007,7 hPa 0,0 l/m 0 min 0 min 73 W/m 13,5 km/h (3 Bft) 97,87 %
28.07.2018 18:52 26,6 C 25,0 C 24,4 C 58 % 1007,7 hPa 0,0 l/m 0 min 0 min 71 W/m 13,5 km/h (3 Bft) 100,00 %
28.07.2018 18:54 26,4 C 25,0 C 24,4 C 58 % 1007,8 hPa 0,0 l/m 0 min 0 min 80 W/m 13,5 km/h (3 Bft) 100,00 %
28.07.2018 18:56 26,3 C 25,0 C 24,4 C 58 % 1007,8 hPa 0,0 l/m 0 min 0 min 78 W/m 11,3 km/h (2 Bft) 100,00 %
28.07.2018 18:58 26,3 C 25,0 C 24,4 C 58 % 1007,8 hPa 0,0 l/m 0 min 0 min 76 W/m 6,8 km/h (2 Bft) 100,00 %
28.07.2018 19:00 26,2 C 25,0 C 24,4 C 59 % 1007,8 hPa 0,0 l/m 0 min 0 min 98 W/m 11,3 km/h (2 Bft) 100,00 %
28.07.2018 19:02 26,1 C 25,0 C 24,4 C 58 % 1007,9 hPa 0,0 l/m 0 min 0 min 93 W/m 6,8 km/h (2 Bft) 95,74 %
28.07.2018 19:04 26,1 C 25,0 C 24,4 C 58 % 1007,8 hPa 0,0 l/m 0 min 0 min 102 W/m 9,0 km/h (2 Bft) 97,87 %
28.07.2018 19:06 26,0 C 25,0 C 24,4 C 59 % 1007,8 hPa 0,0 l/m 0 min 0 min 95 W/m 9,0 km/h (2 Bft) 100,00 %
28.07.2018 19:08 25,9 C 25,0 C 24,4 C 59 % 1007,9 hPa 0,0 l/m 0 min 0 min 80 W/m 9,0 km/h (2 Bft) 97,87 %
28.07.2018 19:10 25,9 C 25,0 C 24,4 C 59 % 1007,9 hPa 0,0 l/m 0 min 0 min 70 W/m 9,0 km/h (2 Bft) 95,74 %
28.07.2018 19:12 25,8 C 25,0 C 24,4 C 58 % 1007,9 hPa 0,0 l/m 0 min 0 min 62 W/m 6,8 km/h (2 Bft) 97,87 %
28.07.2018 19:14 25,8 C 25,0 C 24,4 C 59 % 1007,9 hPa 0,0 l/m 0 min 0 min 63 W/m 6,8 km/h (2 Bft) 95,65 %
28.07.2018 19:16 25,8 C 25,0 C 24,4 C 59 % 1007,9 hPa 0,0 l/m 0 min 0 min 79 W/m 4,5 km/h (1 Bft) 95,74 %
28.07.2018 19:18 25,7 C 25,0 C 24,4 C 59 % 1008,0 hPa 0,0 l/m 0 min 0 min 98 W/m 6,8 km/h (2 Bft) 95,74 %
28.07.2018 19:20 25,7 C 25,0 C 24,4 C 59 % 1008,0 hPa 0,0 l/m 0 min 0 min 98 W/m 6,8 km/h (2 Bft) 95,74 %
28.07.2018 19:22 25,7 C 25,0 C 24,4 C 59 % 1008,0 hPa 0,0 l/m 0 min 0 min 76 W/m 11,3 km/h (2 Bft) 93,62 %
28.07.2018 19:24 25,7 C 25,0 C 24,4 C 59 % 1008,0 hPa 0,0 l/m 0 min 0 min 93 W/m 11,3 km/h (2 Bft) 95,65 %
28.07.2018 19:26 25,7 C 25,0 C 24,4 C 59 % 1008,0 hPa 0,0 l/m 0 min 0 min 98 W/m 9,0 km/h (2 Bft) 93,62 %
28.07.2018 19:28 25,7 C 25,0 C 24,4 C 58 % 1008,0 hPa 0,0 l/m 0 min 0 min 127 W/m 9,0 km/h (2 Bft) 93,62 %
28.07.2018 19:30 25,7 C 25,6 C 24,4 C 58 % 1008,0 hPa 0,0 l/m 0 min 0 min 70 W/m 6,8 km/h (2 Bft) 95,74 %
28.07.2018 19:32 25,7 C 25,6 C 24,4 C 57 % 1007,9 hPa 0,0 l/m 0 min 0 min 70 W/m 9,0 km/h (2 Bft) 96,00 %
28.07.2018 19:34 25,7 C 25,6 C 25,0 C 57 % 1008,0 hPa 0,0 l/m 0 min 0 min 70 W/m 11,3 km/h (2 Bft) 95,65 %
28.07.2018 19:36 25,7 C 25,6 C 25,0 C 56 % 1008,1 hPa 0,0 l/m 0 min 0 min 69 W/m 9,0 km/h (2 Bft) 93,62 %
28.07.2018 19:38 25,7 C 25,6 C 25,0 C 57 % 1008,1 hPa 0,0 l/m 0 min 0 min 64 W/m 6,8 km/h (2 Bft) 91,49 %
28.07.2018 19:40 25,7 C 25,6 C 25,0 C 56 % 1008,2 hPa 0,0 l/m 0 min 0 min 65 W/m 11,3 km/h (2 Bft) 95,74 %
28.07.2018 19:42 25,7 C 25,6 C 25,0 C 56 % 1008,3 hPa 0,0 l/m 0 min 0 min 65 W/m 9,0 km/h (2 Bft) 93,62 %
28.07.2018 19:44 25,8 C 25,6 C 25,0 C 55 % 1008,4 hPa 0,0 l/m 0 min 0 min 65 W/m 9,0 km/h (2 Bft) 95,74 %
28.07.2018 19:46 25,8 C 25,6 C 24,4 C 54 % 1008,3 hPa 0,0 l/m 0 min 0 min 63 W/m 11,3 km/h (2 Bft) 93,48 %
28.07.2018 19:48 25,8 C 25,6 C 24,4 C 54 % 1008,3 hPa 0,0 l/m 0 min 0 min 61 W/m 11,3 km/h (2 Bft) 93,62 %
28.07.2018 19:50 25,8 C 25,0 C 24,4 C 53 % 1008,3 hPa 0,0 l/m 0 min 0 min 57 W/m 9,0 km/h (2 Bft) 97,87 %
28.07.2018 19:52 25,8 C 25,0 C 24,4 C 53 % 1008,3 hPa 0,0 l/m 0 min 0 min 55 W/m 11,3 km/h (2 Bft) 97,87 %
28.07.2018 19:54 25,8 C 25,0 C 24,4 C 53 % 1008,4 hPa 0,0 l/m 0 min 0 min 53 W/m 9,0 km/h (2 Bft) 95,74 %
28.07.2018 19:56 25,8 C 25,0 C 24,4 C 54 % 1008,3 hPa 0,0 l/m 0 min 0 min 51 W/m 9,0 km/h (2 Bft) 95,74 %
28.07.2018 19:58 25,7 C 25,0 C 24,4 C 53 % 1008,5 hPa 0,0 l/m 0 min 0 min 50 W/m 6,8 km/h (2 Bft) 93,48 %
28.07.2018 20:00 25,7 C 25,0 C 24,4 C 53 % 1008,5 hPa 0,0 l/m 0 min 0 min 48 W/m 6,8 km/h (2 Bft) 95,74 %
28.07.2018 20:02 25,7 C 25,0 C 24,4 C 53 % 1008,6 hPa 0,0 l/m 0 min 0 min 47 W/m 9,0 km/h (2 Bft) 95,74 %
28.07.2018 20:04 25,7 C 25,0 C 24,4 C 53 % 1008,6 hPa 0,0 l/m 0 min 0 min 46 W/m 9,0 km/h (2 Bft) 95,74 %
28.07.2018 20:06 25,7 C 25,0 C 24,4 C 53 % 1008,6 hPa 0,0 l/m 0 min 0 min 44 W/m 6,8 km/h (2 Bft) 93,62 %
28.07.2018 20:08 25,6 C 25,0 C 24,4 C 53 % 1008,6 hPa 0,0 l/m 0 min 0 min 44 W/m 6,8 km/h (2 Bft) 97,87 %
28.07.2018 20:10 25,6 C 25,0 C 24,4 C 53 % 1008,6 hPa 0,0 l/m 0 min 0 min 42 W/m 6,8 km/h (2 Bft) 97,83 %
28.07.2018 20:12 25,6 C 24,4 C 23,9 C 53 % 1008,6 hPa 0,0 l/m 0 min 0 min 41 W/m 6,8 km/h (2 Bft) 97,87 %
28.07.2018 20:14 25,6 C 24,4 C 23,9 C 54 % 1008,6 hPa 0,0 l/m 0 min 0 min 40 W/m 6,8 km/h (2 Bft) 95,74 %
28.07.2018 20:16 25,6 C 24,4 C 23,9 C 53 % 1008,7 hPa 0,0 l/m 0 min 0 min 40 W/m 11,3 km/h (2 Bft) 95,74 %
28.07.2018 20:18 25,5 C 24,4 C 23,9 C 54 % 1008,7 hPa 0,0 l/m 0 min 0 min 39 W/m 4,5 km/h (1 Bft) 97,87 %
28.07.2018 20:20 25,5 C 24,4 C 23,9 C 54 % 1008,7 hPa 0,0 l/m 0 min 0 min 39 W/m 4,5 km/h (1 Bft) 97,83 %
28.07.2018 20:22 25,4 C 24,4 C 23,9 C 54 % 1008,8 hPa 0,0 l/m 0 min 0 min 37 W/m 11,3 km/h (2 Bft) 95,74 %
28.07.2018 20:24 25,4 C 24,4 C 23,9 C 53 % 1008,8 hPa 0,0 l/m 0 min 0 min 37 W/m 11,3 km/h (2 Bft) 97,87 %
28.07.2018 20:26 25,4 C 24,4 C 23,9 C 53 % 1008,9 hPa 0,0 l/m 0 min 0 min 37 W/m 4,5 km/h (1 Bft) 95,74 %
28.07.2018 20:28 25,3 C 23,9 C 23,9 C 54 % 1009,0 hPa 0,0 l/m 0 min 0 min 37 W/m 4,5 km/h (1 Bft) 97,87 %
28.07.2018 20:30 25,3 C 23,9 C 23,9 C 54 % 1009,1 hPa 0,0 l/m 0 min 0 min 37 W/m 4,5 km/h (1 Bft) 97,87 %
28.07.2018 20:32 25,3 C 23,9 C 23,9 C 54 % 1009,2 hPa 0,0 l/m 0 min 0 min 37 W/m 6,8 km/h (2 Bft) 95,65 %
28.07.2018 20:34 25,2 C 23,9 C 23,9 C 54 % 1009,2 hPa 0,0 l/m 0 min 0 min 35 W/m 4,5 km/h (1 Bft) 97,87 %
28.07.2018 20:36 25,2 C 23,9 C 23,3 C 54 % 1009,2 hPa 0,0 l/m 0 min 0 min 35 W/m 9,0 km/h (2 Bft) 97,87 %
28.07.2018 20:38 25,1 C 23,9 C 23,3 C 54 % 1009,1 hPa 0,0 l/m 0 min 0 min 33 W/m 4,5 km/h (1 Bft) 97,14 %
28.07.2018 20:40 25,1 C 23,9 C 23,3 C 55 % 1009,2 hPa 0,0 l/m 0 min 0 min 32 W/m 9,0 km/h (2 Bft) 96,61 %
28.07.2018 20:42 25,1 C 23,9 C 23,3 C 55 % 1009,3 hPa 0,0 l/m 0 min 0 min 30 W/m 6,8 km/h (2 Bft) 97,14 %
28.07.2018 20:44 25,1 C 23,9 C 23,3 C 55 % 1009,3 hPa 0,0 l/m 0 min 0 min 30 W/m 4,5 km/h (1 Bft) 97,87 %
28.07.2018 20:46 25,0 C 23,3 C 23,3 C 55 % 1009,3 hPa 0,0 l/m 0 min 0 min 28 W/m 13,5 km/h (3 Bft) 98,28 %
28.07.2018 20:48 24,9 C 23,3 C 23,3 C 55 % 1009,3 hPa 0,0 l/m 0 min 0 min 27 W/m 4,5 km/h (1 Bft) 100,00 %
28.07.2018 20:50 24,9 C 23,3 C 23,3 C 55 % 1009,4 hPa 0,0 l/m 0 min 0 min 26 W/m 4,5 km/h (1 Bft) 100,00 %
28.07.2018 20:52 24,8 C 23,3 C 22,8 C 56 % 1009,4 hPa 0,0 l/m 0 min 0 min 25 W/m 6,8 km/h (2 Bft) 97,87 %
28.07.2018 20:54 24,8 C 23,3 C 22,8 C 56 % 1009,4 hPa 0,0 l/m 0 min 0 min 24 W/m 6,8 km/h (2 Bft) 100,00 %
28.07.2018 20:56 24,7 C 23,3 C 22,8 C 56 % 1009,5 hPa 0,0 l/m 0 min 0 min 22 W/m 4,5 km/h (1 Bft) 100,00 %
28.07.2018 20:58 24,7 C 22,8 C 22,8 C 56 % 1009,5 hPa 0,0 l/m 0 min 0 min 21 W/m 2,3 km/h (1 Bft) 100,00 %
28.07.2018 21:00 24,7 C 22,8 C 22,8 C 57 % 1009,5 hPa 0,0 l/m 0 min 0 min 20 W/m 4,5 km/h (1 Bft) 100,00 %
28.07.2018 21:02 24,6 C 22,8 C 22,8 C 57 % 1009,5 hPa 0,0 l/m 0 min 0 min 19 W/m 4,5 km/h (1 Bft) 100,00 %
28.07.2018 21:04 24,5 C 22,8 C 22,8 C 57 % 1009,5 hPa 0,0 l/m 0 min 0 min 18 W/m 9,0 km/h (2 Bft) 100,00 %
28.07.2018 21:06 24,4 C 22,8 C 22,8 C 57 % 1009,5 hPa 0,0 l/m 0 min 0 min 16 W/m 9,0 km/h (2 Bft) 100,00 %
28.07.2018 21:08 24,4 C 22,8 C 22,8 C 57 % 1009,5 hPa 0,0 l/m 0 min 0 min 15 W/m 6,8 km/h (2 Bft) 100,00 %
28.07.2018 21:10 24,3 C 22,2 C 22,2 C 57 % 1009,5 hPa 0,0 l/m 0 min 0 min 14 W/m 6,8 km/h (2 Bft) 100,00 %
28.07.2018 21:12 24,3 C 22,2 C 22,2 C 57 % 1009,6 hPa 0,0 l/m 0 min 0 min 12 W/m 4,5 km/h (1 Bft) 97,87 %
28.07.2018 21:14 24,2 C 22,2 C 22,2 C 58 % 1009,6 hPa 0,0 l/m 0 min 0 min 12 W/m 6,8 km/h (2 Bft) 100,00 %
28.07.2018 21:16 24,1 C 22,2 C 22,2 C 57 % 1009,7 hPa 0,0 l/m 0 min 0 min 11 W/m 11,3 km/h (2 Bft) 100,00 %
28.07.2018 21:18 24,1 C 22,2 C 22,2 C 57 % 1009,7 hPa 0,0 l/m 0 min 0 min 10 W/m 9,0 km/h (2 Bft) 100,00 %
28.07.2018 21:20 23,9 C 22,2 C 22,2 C 57 % 1009,7 hPa 0,0 l/m 0 min 0 min 9 W/m 6,8 km/h (2 Bft) 100,00 %
28.07.2018 21:22 23,9 C 21,7 C 21,7 C 57 % 1009,7 hPa 0,0 l/m 0 min 0 min 8 W/m 11,3 km/h (2 Bft) 100,00 %
28.07.2018 21:24 23,8 C 21,7 C 21,7 C 56 % 1009,8 hPa 0,0 l/m 0 min 0 min 7 W/m 9,0 km/h (2 Bft) 100,00 %
28.07.2018 21:26 23,7 C 21,7 C 21,7 C 57 % 1009,8 hPa 0,0 l/m 0 min 0 min 7 W/m 9,0 km/h (2 Bft) 100,00 %
28.07.2018 21:28 23,6 C 21,7 C 21,7 C 57 % 1009,9 hPa 0,0 l/m 0 min 0 min 5 W/m 13,5 km/h (3 Bft) 97,83 %
28.07.2018 21:30 23,6 C 21,7 C 21,7 C 56 % 1010,0 hPa 0,0 l/m 0 min 0 min 5 W/m 9,0 km/h (2 Bft) 100,00 %
28.07.2018 21:32 23,4 C 21,7 C 21,7 C 57 % 1009,9 hPa 0,0 l/m 0 min 0 min 5 W/m 9,0 km/h (2 Bft) 100,00 %
28.07.2018 21:34 23,4 C 21,7 C 21,7 C 57 % 1009,9 hPa 0,0 l/m 0 min 0 min 3 W/m 6,8 km/h (2 Bft) 100,00 %
28.07.2018 21:36 23,3 C 21,7 C 21,7 C 56 % 1010,0 hPa 0,0 l/m 0 min 0 min 0 W/m 9,0 km/h (2 Bft) 100,00 %
28.07.2018 21:38 23,3 C 21,7 C 21,7 C 56 % 1010,1 hPa 0,0 l/m 0 min 0 min 0 W/m 9,0 km/h (2 Bft) 100,00 %
28.07.2018 21:40 23,2 C 21,1 C 21,7 C 57 % 1010,0 hPa 0,0 l/m 0 min 0 min 0 W/m 2,3 km/h (1 Bft) 100,00 %
28.07.2018 21:42 23,2 C 21,1 C 21,1 C 57 % 1010,0 hPa 0,0 l/m 0 min 0 min 0 W/m 6,8 km/h (2 Bft) 100,00 %
28.07.2018 21:44 23,2 C 21,1 C 21,1 C 57 % 1010,1 hPa 0,0 l/m 0 min 0 min 0 W/m 4,5 km/h (1 Bft) 97,87 %
28.07.2018 21:46 23,1 C 21,1 C 21,1 C 57 % 1010,2 hPa 0,0 l/m 0 min 0 min 0 W/m 6,8 km/h (2 Bft) 97,87 %
28.07.2018 21:48 23,0 C 21,1 C 21,1 C 57 % 1010,3 hPa 0,0 l/m 0 min 0 min 0 W/m 9,0 km/h (2 Bft) 97,87 %
28.07.2018 21:50 22,9 C 21,1 C 21,1 C 57 % 1010,3 hPa 0,0 l/m 0 min 0 min 0 W/m 4,5 km/h (1 Bft) 97,87 %
28.07.2018 21:52 22,9 C 21,1 C 21,1 C 58 % 1010,4 hPa 0,0 l/m 0 min 0 min 0 W/m 6,8 km/h (2 Bft) 97,87 %
28.07.2018 21:54 22,8 C 20,6 C 21,1 C 58 % 1010,5 hPa 0,0 l/m 0 min 0 min 0 W/m 4,5 km/h (1 Bft) 97,83 %
28.07.2018 21:56 22,7 C 20,6 C 21,1 C 58 % 1010,6 hPa 0,0 l/m 0 min 0 min 0 W/m 4,5 km/h (1 Bft) 97,87 %
28.07.2018 21:58 22,7 C 20,6 C 21,1 C 58 % 1010,6 hPa 0,0 l/m 0 min 0 min 0 W/m 4,5 km/h (1 Bft) 97,87 %
28.07.2018 22:00 22,6 C 20,6 C 21,1 C 58 % 1010,6 hPa 0,0 l/m 0 min 0 min 0 W/m 4,5 km/h (1 Bft) 97,87 %
28.07.2018 22:02 22,6 C 20,6 C 20,6 C 58 % 1010,6 hPa 0,0 l/m 0 min 0 min 0 W/m 4,5 km/h (1 Bft) 95,74 %
28.07.2018 22:04 22,6 C 20,6 C 20,6 C 58 % 1010,7 hPa 0,0 l/m 0 min 0 min 0 W/m 4,5 km/h (1 Bft) 97,87 %
28.07.2018 22:06 22,5 C 20,6 C 20,6 C 58 % 1010,7 hPa 0,0 l/m 0 min 0 min 0 W/m 2,3 km/h (1 Bft) 97,83 %
28.07.2018 22:08 22,4 C 20,6 C 20,6 C 58 % 1010,7 hPa 0,0 l/m 0 min 0 min 0 W/m 4,5 km/h (1 Bft) 97,87 %
28.07.2018 22:10 22,3 C 20,6 C 20,6 C 58 % 1010,8 hPa 0,0 l/m 0 min 0 min 0 W/m 0,0 km/h (0 Bft) 97,87 %
28.07.2018 22:12 22,3 C 20,0 C 20,6 C 59 % 1010,8 hPa 0,0 l/m 0 min 0 min 0 W/m 6,8 km/h (2 Bft) 95,74 %
28.07.2018 22:14 22,2 C 20,0 C 20,6 C 59 % 1010,8 hPa 0,0 l/m 0 min 0 min 0 W/m 2,3 km/h (1 Bft) 97,87 %
28.07.2018 22:16 22,2 C 20,0 C 20,6 C 59 % 1010,8 hPa 0,0 l/m 0 min 0 min 0 W/m 6,8 km/h (2 Bft) 97,87 %
28.07.2018 22:18 22,1 C 20,0 C 20,6 C 58 % 1010,8 hPa 0,0 l/m 0 min 0 min 0 W/m 9,0 km/h (2 Bft) 97,83 %
28.07.2018 22:20 22,1 C 20,0 C 20,6 C 58 % 1010,8 hPa 0,0 l/m 0 min 0 min 0 W/m 6,8 km/h (2 Bft) 95,74 %
28.07.2018 22:22 21,9 C 20,0 C 20,6 C 57 % 1010,9 hPa 0,0 l/m 0 min 0 min 0 W/m 9,0 km/h (2 Bft) 97,87 %
28.07.2018 22:24 21,9 C 20,6 C 20,6 C 57 % 1010,9 hPa 0,0 l/m 0 min 0 min 0 W/m 9,0 km/h (2 Bft) 97,87 %
28.07.2018 22:26 21,8 C 20,6 C 20,6 C 57 % 1010,9 hPa 0,0 l/m 0 min 0 min 0 W/m 9,0 km/h (2 Bft) 97,87 %
28.07.2018 22:28 21,8 C 20,6 C 20,6 C 57 % 1010,9 hPa 0,0 l/m 0 min 0 min 0 W/m 9,0 km/h (2 Bft) 97,87 %
28.07.2018 22:30 21,7 C 20,6 C 20,6 C 57 % 1010,9 hPa 0,0 l/m 0 min 0 min 0 W/m 9,0 km/h (2 Bft) 97,83 %
28.07.2018 22:32 21,7 C 20,6 C 20,6 C 56 % 1010,9 hPa 0,0 l/m 0 min 0 min 0 W/m 6,8 km/h (2 Bft) 100,00 %
28.07.2018 22:34 21,7 C 20,6 C 20,6 C 57 % 1011,0 hPa 0,0 l/m 0 min 0 min 0 W/m 6,8 km/h (2 Bft) 95,74 %
28.07.2018 22:36 21,6 C 20,6 C 20,6 C 57 % 1011,0 hPa 0,0 l/m 0 min 0 min 0 W/m 4,5 km/h (1 Bft) 97,87 %
28.07.2018 22:38 21,6 C 20,6 C 20,6 C 57 % 1011,1 hPa 0,0 l/m 0 min 0 min 0 W/m 6,8 km/h (2 Bft) 93,62 %
28.07.2018 22:40 21,6 C 20,6 C 20,6 C 57 % 1011,0 hPa 0,0 l/m 0 min 0 min 0 W/m 2,3 km/h (1 Bft) 95,74 %
28.07.2018 22:42 21,6 C 20,6 C 20,6 C 57 % 1011,0 hPa 0,0 l/m 0 min 0 min 0 W/m 6,8 km/h (2 Bft) 95,65 %
28.07.2018 22:44 21,5 C 20,0 C 20,6 C 57 % 1011,1 hPa 0,0 l/m 0 min 0 min 0 W/m 6,8 km/h (2 Bft) 95,74 %
28.07.2018 22:46 21,5 C 20,0 C 20,6 C 57 % 1011,1 hPa 0,0 l/m 0 min 0 min 0 W/m 4,5 km/h (1 Bft) 97,87 %
28.07.2018 22:48 21,5 C 20,0 C 20,6 C 57 % 1011,0 hPa 0,0 l/m 0 min 0 min 0 W/m 6,8 km/h (2 Bft) 95,74 %
28.07.2018 22:50 21,4 C 20,0 C 20,6 C 57 % 1011,1 hPa 0,0 l/m 0 min 0 min 0 W/m 4,5 km/h (1 Bft) 97,87 %
28.07.2018 22:52 21,4 C 20,0 C 20,6 C 57 % 1011,1 hPa 0,0 l/m 0 min 0 min 0 W/m 4,5 km/h (1 Bft) 95,74 %
28.07.2018 22:54 21,4 C 20,0 C 20,6 C 57 % 1011,1 hPa 0,0 l/m 0 min 0 min 0 W/m 4,5 km/h (1 Bft) 95,65 %
28.07.2018 22:56 21,4 C 20,0 C 20,6 C 58 % 1011,2 hPa 0,0 l/m 0 min 0 min 0 W/m 4,5 km/h (1 Bft) 97,87 %
28.07.2018 22:58 21,3 C 20,0 C 20,6 C 58 % 1011,2 hPa 0,0 l/m 0 min 0 min 0 W/m 4,5 km/h (1 Bft) 95,74 %
28.07.2018 23:00 21,3 C 20,0 C 20,0 C 57 % 1011,2 hPa 0,0 l/m 0 min 0 min 0 W/m 4,5 km/h (1 Bft) 93,62 %
28.07.2018 23:02 21,3 C 20,0 C 20,0 C 57 % 1011,3 hPa 0,0 l/m 0 min 0 min 0 W/m 6,8 km/h (2 Bft) 95,74 %
28.07.2018 23:04 21,3 C 20,0 C 20,0 C 57 % 1011,3 hPa 0,0 l/m 0 min 0 min 0 W/m 4,5 km/h (1 Bft) 95,65 %
28.07.2018 23:06 21,2 C 20,0 C 20,0 C 57 % 1011,3 hPa 0,0 l/m 0 min 0 min 0 W/m 6,8 km/h (2 Bft) 95,24 %
28.07.2018 23:08 21,2 C 20,0 C 20,0 C 57 % 1011,2 hPa 0,0 l/m 0 min 0 min 0 W/m 6,8 km/h (2 Bft) 95,74 %
28.07.2018 23:10 21,2 C 20,0 C 20,0 C 57 % 1011,3 hPa 0,0 l/m 0 min 0 min 0 W/m 4,5 km/h (1 Bft) 95,74 %
28.07.2018 23:12 21,1 C 20,0 C 20,0 C 57 % 1011,3 hPa 0,0 l/m 0 min 0 min 0 W/m 4,5 km/h (1 Bft) 93,62 %
28.07.2018 23:14 21,1 C 20,0 C 20,0 C 57 % 1011,3 hPa 0,0 l/m 0 min 0 min 0 W/m 4,5 km/h (1 Bft) 95,65 %
28.07.2018 23:16 21,1 C 20,0 C 20,0 C 57 % 1011,4 hPa 0,0 l/m 0 min 0 min 0 W/m 4,5 km/h (1 Bft) 95,74 %
28.07.2018 23:18 21,0 C 19,4 C 20,0 C 58 % 1011,4 hPa 0,0 l/m 0 min 0 min 0 W/m 6,8 km/h (2 Bft) 95,74 %
28.07.2018 23:20 21,0 C 19,4 C 20,0 C 58 % 1011,3 hPa 0,0 l/m 0 min 0 min 0 W/m 6,8 km/h (2 Bft) 95,74 %
28.07.2018 23:22 21,0 C 19,4 C 20,0 C 58 % 1011,4 hPa 0,0 l/m 0 min 0 min 0 W/m 2,3 km/h (1 Bft) 93,62 %
28.07.2018 23:24 20,9 C 19,4 C 20,0 C 58 % 1011,5 hPa 0,0 l/m 0 min 0 min 0 W/m 2,3 km/h (1 Bft) 93,62 %
28.07.2018 23:26 20,9 C 19,4 C 20,0 C 58 % 1011,4 hPa 0,0 l/m 0 min 0 min 0 W/m 4,5 km/h (1 Bft) 93,48 %
28.07.2018 23:28 20,9 C 19,4 C 20,0 C 58 % 1011,4 hPa 0,0 l/m 0 min 0 min 0 W/m 6,8 km/h (2 Bft) 95,74 %
28.07.2018 23:30 20,8 C 19,4 C 20,0 C 58 % 1011,4 hPa 0,0 l/m 0 min 0 min 0 W/m 4,5 km/h (1 Bft) 95,74 %
28.07.2018 23:32 20,8 C 18,9 C 19,4 C 58 % 1011,5 hPa 0,0 l/m 0 min 0 min 0 W/m 4,5 km/h (1 Bft) 95,83 %
28.07.2018 23:34 20,8 C 18,9 C 19,4 C 58 % 1011,5 hPa 0,0 l/m 0 min 0 min 0 W/m 4,5 km/h (1 Bft) 93,62 %
28.07.2018 23:36 20,8 C 18,9 C 19,4 C 58 % 1011,5 hPa 0,0 l/m 0 min 0 min 0 W/m 4,5 km/h (1 Bft) 95,65 %
28.07.2018 23:38 20,7 C 18,9 C 19,4 C 58 % 1011,5 hPa 0,0 l/m 0 min 0 min 0 W/m 2,3 km/h (1 Bft) 97,87 %
28.07.2018 23:40 20,7 C 18,9 C 19,4 C 58 % 1011,5 hPa 0,0 l/m 0 min 0 min 0 W/m 4,5 km/h (1 Bft) 95,74 %
28.07.2018 23:42 20,7 C 18,9 C 19,4 C 58 % 1011,5 hPa 0,0 l/m 0 min 0 min 0 W/m 4,5 km/h (1 Bft) 97,87 %
28.07.2018 23:44 20,6 C 18,9 C 19,4 C 59 % 1011,6 hPa 0,0 l/m 0 min 0 min 0 W/m 4,5 km/h (1 Bft) 100,00 %
28.07.2018 23:46 20,6 C 18,9 C 19,4 C 59 % 1011,6 hPa 0,0 l/m 0 min 0 min 0 W/m 2,3 km/h (1 Bft) 95,74 %
28.07.2018 23:48 20,6 C 18,9 C 18,9 C 59 % 1011,6 hPa 0,0 l/m 0 min 0 min 0 W/m 2,3 km/h (1 Bft) 100,00 %
28.07.2018 23:50 20,5 C 18,9 C 18,9 C 60 % 1011,7 hPa 0,0 l/m 0 min 0 min 0 W/m 2,3 km/h (1 Bft) 97,87 %
28.07.2018 23:52 20,5 C 18,9 C 18,9 C 61 % 1011,7 hPa 0,0 l/m 0 min 0 min 0 W/m 4,5 km/h (1 Bft) 97,87 %
28.07.2018 23:54 20,4 C 18,3 C 18,9 C 61 % 1011,8 hPa 0,0 l/m 0 min 0 min 0 W/m 4,5 km/h (1 Bft) 97,87 %
28.07.2018 23:56 20,4 C 18,3 C 18,9 C 61 % 1011,7 hPa 0,0 l/m 0 min 0 min 0 W/m 2,3 km/h (1 Bft) 100,00 %
28.07.2018 23:58 20,3 C 18,3 C 18,9 C 61 % 1011,8 hPa 0,0 l/m 0 min 0 min 0 W/m 2,3 km/h (1 Bft) 100,00 %
_ Min-Zeit 23:58 23:54 08:08 15:52 07:12 - - - - 00:00 06:42
Minimum _ 20,3 C 18,3 C 18,9 C 53 % 1003,5 hPa - - - - 0,0 km/h (0 Bft) 91,30 %
_ Max-Zeit 16:16 16:10 15:36 09:10 23:54 08:04 06:46 05:06 13:18 18:12 00:02
Maximum _ 29,4 C 32,8 C 27,8 C 87 % 1011,8 hPa 0,2 l/m 2 min 2 min 1039 W/m 27,0 km/h
W-NW (4 Bft)
100,00 %
Durchschnitt _ 24,9 C 24,6 C 23,3 C 64 % 1006,3 hPa #0,4 l/m #4:26 h #38 min. 259 W/m 6,8 km/h (2 Bft) 97,52 %
© 2018 W. Hausmann